<?xml version="1.0" encoding="UTF-8" standalone="no" ?>
<gpx xmlns="http://www.topografix.com/GPX/1/1" xmlns:xsi="http://www.w3.org/2001/XMLSchema-instance" xsi:schemaLocation="http://www.topografix.com/GPX/1/1 http://www.topografix.com/GPX/1/1/gpx.xsd" version="1.1" creator="VisuGPX - https://www.visugpx.com">
  <metadata>
    <name>Pic du TARBESOU</name>
    <desc><![CDATA[Belle randonnée en crête sans difficulté technique.]]></desc>
  </metadata>
  <trk>
    <name><![CDATA[20190209202648-R5H9h]]></name>
    <trkseg>
      <trkpt lat="42.72724" lon="1.96487">
        <ele>1697.83</ele>
        <time>2019-02-09T08:14:16Z</time>
      </trkpt>
      <trkpt lat="42.72725" lon="1.96492">
        <ele>1695.9</ele>
        <time>2019-02-09T08:14:27Z</time>
      </trkpt>
      <trkpt lat="42.72726" lon="1.96492">
        <ele>1696.38</ele>
        <time>2019-02-09T08:16:00Z</time>
      </trkpt>
      <trkpt lat="42.72726" lon="1.96492">
        <ele>1698.31</ele>
        <time>2019-02-09T08:22:32Z</time>
      </trkpt>
      <trkpt lat="42.72723" lon="1.96489">
        <ele>1696.86</ele>
        <time>2019-02-09T08:22:47Z</time>
      </trkpt>
      <trkpt lat="42.72725" lon="1.96479">
        <ele>1696.86</ele>
        <time>2019-02-09T08:22:59Z</time>
      </trkpt>
      <trkpt lat="42.72725" lon="1.96468">
        <ele>1698.31</ele>
        <time>2019-02-09T08:23:46Z</time>
      </trkpt>
      <trkpt lat="42.72731" lon="1.96466">
        <ele>1698.79</ele>
        <time>2019-02-09T08:25:08Z</time>
      </trkpt>
      <trkpt lat="42.72733" lon="1.96459">
        <ele>1699.27</ele>
        <time>2019-02-09T08:28:12Z</time>
      </trkpt>
      <trkpt lat="42.72741" lon="1.9645">
        <ele>1698.79</ele>
        <time>2019-02-09T08:28:23Z</time>
      </trkpt>
      <trkpt lat="42.72745" lon="1.96439">
        <ele>1699.27</ele>
        <time>2019-02-09T08:28:34Z</time>
      </trkpt>
      <trkpt lat="42.72749" lon="1.96428">
        <ele>1700.23</ele>
        <time>2019-02-09T08:28:45Z</time>
      </trkpt>
      <trkpt lat="42.72754" lon="1.96418">
        <ele>1701.19</ele>
        <time>2019-02-09T08:28:56Z</time>
      </trkpt>
      <trkpt lat="42.7276" lon="1.96408">
        <ele>1703.11</ele>
        <time>2019-02-09T08:29:09Z</time>
      </trkpt>
      <trkpt lat="42.72768" lon="1.96401">
        <ele>1703.59</ele>
        <time>2019-02-09T08:29:22Z</time>
      </trkpt>
      <trkpt lat="42.72772" lon="1.96395">
        <ele>1705.04</ele>
        <time>2019-02-09T08:30:07Z</time>
      </trkpt>
      <trkpt lat="42.7278" lon="1.96386">
        <ele>1706</ele>
        <time>2019-02-09T08:30:19Z</time>
      </trkpt>
      <trkpt lat="42.72788" lon="1.96377">
        <ele>1706.48</ele>
        <time>2019-02-09T08:30:30Z</time>
      </trkpt>
      <trkpt lat="42.72794" lon="1.96369">
        <ele>1708.4</ele>
        <time>2019-02-09T08:30:42Z</time>
      </trkpt>
      <trkpt lat="42.72802" lon="1.96362">
        <ele>1709.36</ele>
        <time>2019-02-09T08:30:53Z</time>
      </trkpt>
      <trkpt lat="42.72811" lon="1.96357">
        <ele>1710.32</ele>
        <time>2019-02-09T08:31:04Z</time>
      </trkpt>
      <trkpt lat="42.72818" lon="1.9635">
        <ele>1710.8</ele>
        <time>2019-02-09T08:31:20Z</time>
      </trkpt>
      <trkpt lat="42.72826" lon="1.96344">
        <ele>1712.25</ele>
        <time>2019-02-09T08:31:32Z</time>
      </trkpt>
      <trkpt lat="42.72834" lon="1.96337">
        <ele>1713.69</ele>
        <time>2019-02-09T08:31:45Z</time>
      </trkpt>
      <trkpt lat="42.72841" lon="1.96331">
        <ele>1714.17</ele>
        <time>2019-02-09T08:31:58Z</time>
      </trkpt>
      <trkpt lat="42.72849" lon="1.96323">
        <ele>1715.61</ele>
        <time>2019-02-09T08:32:11Z</time>
      </trkpt>
      <trkpt lat="42.72858" lon="1.96317">
        <ele>1715.61</ele>
        <time>2019-02-09T08:32:24Z</time>
      </trkpt>
      <trkpt lat="42.72865" lon="1.96312">
        <ele>1717.05</ele>
        <time>2019-02-09T08:32:37Z</time>
      </trkpt>
      <trkpt lat="42.72874" lon="1.96305">
        <ele>1718.49</ele>
        <time>2019-02-09T08:32:51Z</time>
      </trkpt>
      <trkpt lat="42.72881" lon="1.96299">
        <ele>1718.97</ele>
        <time>2019-02-09T08:33:02Z</time>
      </trkpt>
      <trkpt lat="42.72887" lon="1.96291">
        <ele>1719.94</ele>
        <time>2019-02-09T08:33:42Z</time>
      </trkpt>
      <trkpt lat="42.72896" lon="1.96284">
        <ele>1720.42</ele>
        <time>2019-02-09T08:33:56Z</time>
      </trkpt>
      <trkpt lat="42.72903" lon="1.96278">
        <ele>1721.38</ele>
        <time>2019-02-09T08:34:07Z</time>
      </trkpt>
      <trkpt lat="42.72912" lon="1.9627">
        <ele>1722.34</ele>
        <time>2019-02-09T08:34:18Z</time>
      </trkpt>
      <trkpt lat="42.72913" lon="1.96261">
        <ele>1720.9</ele>
        <time>2019-02-09T08:34:43Z</time>
      </trkpt>
      <trkpt lat="42.72921" lon="1.96253">
        <ele>1721.86</ele>
        <time>2019-02-09T08:34:55Z</time>
      </trkpt>
      <trkpt lat="42.72929" lon="1.96243">
        <ele>1723.3</ele>
        <time>2019-02-09T08:35:09Z</time>
      </trkpt>
      <trkpt lat="42.72936" lon="1.96241">
        <ele>1726.67</ele>
        <time>2019-02-09T08:35:24Z</time>
      </trkpt>
      <trkpt lat="42.72944" lon="1.96233">
        <ele>1727.63</ele>
        <time>2019-02-09T08:35:35Z</time>
      </trkpt>
      <trkpt lat="42.72952" lon="1.96225">
        <ele>1729.07</ele>
        <time>2019-02-09T08:35:46Z</time>
      </trkpt>
      <trkpt lat="42.72959" lon="1.96216">
        <ele>1730.03</ele>
        <time>2019-02-09T08:35:59Z</time>
      </trkpt>
      <trkpt lat="42.72966" lon="1.96207">
        <ele>1730.99</ele>
        <time>2019-02-09T08:36:10Z</time>
      </trkpt>
      <trkpt lat="42.72971" lon="1.96196">
        <ele>1731.95</ele>
        <time>2019-02-09T08:36:21Z</time>
      </trkpt>
      <trkpt lat="42.72977" lon="1.96186">
        <ele>1733.88</ele>
        <time>2019-02-09T08:36:33Z</time>
      </trkpt>
      <trkpt lat="42.72975" lon="1.96184">
        <ele>1733.88</ele>
        <time>2019-02-09T08:38:17Z</time>
      </trkpt>
      <trkpt lat="42.72974" lon="1.96191">
        <ele>1734.36</ele>
        <time>2019-02-09T08:38:50Z</time>
      </trkpt>
      <trkpt lat="42.72973" lon="1.96205">
        <ele>1736.76</ele>
        <time>2019-02-09T08:39:09Z</time>
      </trkpt>
      <trkpt lat="42.72968" lon="1.96216">
        <ele>1737.72</ele>
        <time>2019-02-09T08:39:21Z</time>
      </trkpt>
      <trkpt lat="42.72963" lon="1.96226">
        <ele>1738.68</ele>
        <time>2019-02-09T08:39:32Z</time>
      </trkpt>
      <trkpt lat="42.72958" lon="1.96237">
        <ele>1739.16</ele>
        <time>2019-02-09T08:39:43Z</time>
      </trkpt>
      <trkpt lat="42.72953" lon="1.96247">
        <ele>1740.6</ele>
        <time>2019-02-09T08:39:54Z</time>
      </trkpt>
      <trkpt lat="42.72948" lon="1.96258">
        <ele>1741.57</ele>
        <time>2019-02-09T08:40:05Z</time>
      </trkpt>
      <trkpt lat="42.72944" lon="1.9627">
        <ele>1743.01</ele>
        <time>2019-02-09T08:40:17Z</time>
      </trkpt>
      <trkpt lat="42.72945" lon="1.96278">
        <ele>1745.41</ele>
        <time>2019-02-09T08:40:30Z</time>
      </trkpt>
      <trkpt lat="42.72942" lon="1.96289">
        <ele>1746.37</ele>
        <time>2019-02-09T08:40:40Z</time>
      </trkpt>
      <trkpt lat="42.72937" lon="1.96299">
        <ele>1746.85</ele>
        <time>2019-02-09T08:40:51Z</time>
      </trkpt>
      <trkpt lat="42.72933" lon="1.96308">
        <ele>1747.81</ele>
        <time>2019-02-09T08:41:02Z</time>
      </trkpt>
      <trkpt lat="42.7293" lon="1.96319">
        <ele>1748.78</ele>
        <time>2019-02-09T08:41:14Z</time>
      </trkpt>
      <trkpt lat="42.72926" lon="1.96329">
        <ele>1749.74</ele>
        <time>2019-02-09T08:41:25Z</time>
      </trkpt>
      <trkpt lat="42.72919" lon="1.96339">
        <ele>1750.7</ele>
        <time>2019-02-09T08:41:36Z</time>
      </trkpt>
      <trkpt lat="42.72915" lon="1.9635">
        <ele>1751.18</ele>
        <time>2019-02-09T08:41:48Z</time>
      </trkpt>
      <trkpt lat="42.72911" lon="1.96362">
        <ele>1752.62</ele>
        <time>2019-02-09T08:42:00Z</time>
      </trkpt>
      <trkpt lat="42.72908" lon="1.96375">
        <ele>1754.06</ele>
        <time>2019-02-09T08:42:12Z</time>
      </trkpt>
      <trkpt lat="42.72904" lon="1.96386">
        <ele>1755.5</ele>
        <time>2019-02-09T08:42:23Z</time>
      </trkpt>
      <trkpt lat="42.72899" lon="1.96395">
        <ele>1755.5</ele>
        <time>2019-02-09T08:42:34Z</time>
      </trkpt>
      <trkpt lat="42.72895" lon="1.96405">
        <ele>1756.95</ele>
        <time>2019-02-09T08:42:50Z</time>
      </trkpt>
      <trkpt lat="42.7289" lon="1.96416">
        <ele>1757.43</ele>
        <time>2019-02-09T08:43:00Z</time>
      </trkpt>
      <trkpt lat="42.72886" lon="1.96427">
        <ele>1757.91</ele>
        <time>2019-02-09T08:43:10Z</time>
      </trkpt>
      <trkpt lat="42.72881" lon="1.96438">
        <ele>1759.35</ele>
        <time>2019-02-09T08:43:22Z</time>
      </trkpt>
      <trkpt lat="42.72877" lon="1.96448">
        <ele>1760.31</ele>
        <time>2019-02-09T08:43:38Z</time>
      </trkpt>
      <trkpt lat="42.72871" lon="1.96458">
        <ele>1760.79</ele>
        <time>2019-02-09T08:43:48Z</time>
      </trkpt>
      <trkpt lat="42.72869" lon="1.9647">
        <ele>1761.75</ele>
        <time>2019-02-09T08:44:02Z</time>
      </trkpt>
      <trkpt lat="42.72867" lon="1.96482">
        <ele>1763.68</ele>
        <time>2019-02-09T08:44:13Z</time>
      </trkpt>
      <trkpt lat="42.72864" lon="1.96493">
        <ele>1764.16</ele>
        <time>2019-02-09T08:44:29Z</time>
      </trkpt>
      <trkpt lat="42.72863" lon="1.96505">
        <ele>1765.6</ele>
        <time>2019-02-09T08:44:39Z</time>
      </trkpt>
      <trkpt lat="42.72861" lon="1.96517">
        <ele>1765.12</ele>
        <time>2019-02-09T08:44:49Z</time>
      </trkpt>
      <trkpt lat="42.72857" lon="1.96527">
        <ele>1765.6</ele>
        <time>2019-02-09T08:44:58Z</time>
      </trkpt>
      <trkpt lat="42.72854" lon="1.96539">
        <ele>1766.08</ele>
        <time>2019-02-09T08:45:08Z</time>
      </trkpt>
      <trkpt lat="42.72855" lon="1.96551">
        <ele>1766.56</ele>
        <time>2019-02-09T08:45:18Z</time>
      </trkpt>
      <trkpt lat="42.72857" lon="1.96563">
        <ele>1767.52</ele>
        <time>2019-02-09T08:45:29Z</time>
      </trkpt>
      <trkpt lat="42.7286" lon="1.96571">
        <ele>1768.48</ele>
        <time>2019-02-09T08:45:46Z</time>
      </trkpt>
      <trkpt lat="42.72863" lon="1.96583">
        <ele>1769.44</ele>
        <time>2019-02-09T08:45:58Z</time>
      </trkpt>
      <trkpt lat="42.72868" lon="1.96594">
        <ele>1770.89</ele>
        <time>2019-02-09T08:46:08Z</time>
      </trkpt>
      <trkpt lat="42.72869" lon="1.96607">
        <ele>1771.37</ele>
        <time>2019-02-09T08:46:17Z</time>
      </trkpt>
      <trkpt lat="42.72873" lon="1.9662">
        <ele>1771.85</ele>
        <time>2019-02-09T08:46:27Z</time>
      </trkpt>
      <trkpt lat="42.72876" lon="1.96631">
        <ele>1773.77</ele>
        <time>2019-02-09T08:46:38Z</time>
      </trkpt>
      <trkpt lat="42.72879" lon="1.96642">
        <ele>1774.25</ele>
        <time>2019-02-09T08:46:50Z</time>
      </trkpt>
      <trkpt lat="42.72883" lon="1.96655">
        <ele>1775.69</ele>
        <time>2019-02-09T08:47:02Z</time>
      </trkpt>
      <trkpt lat="42.72886" lon="1.96665">
        <ele>1776.65</ele>
        <time>2019-02-09T08:47:13Z</time>
      </trkpt>
      <trkpt lat="42.7289" lon="1.96678">
        <ele>1777.61</ele>
        <time>2019-02-09T08:47:25Z</time>
      </trkpt>
      <trkpt lat="42.72894" lon="1.9669">
        <ele>1778.1</ele>
        <time>2019-02-09T08:47:37Z</time>
      </trkpt>
      <trkpt lat="42.72899" lon="1.96702">
        <ele>1779.06</ele>
        <time>2019-02-09T08:47:49Z</time>
      </trkpt>
      <trkpt lat="42.72903" lon="1.96715">
        <ele>1780.5</ele>
        <time>2019-02-09T08:48:01Z</time>
      </trkpt>
      <trkpt lat="42.72908" lon="1.96726">
        <ele>1781.46</ele>
        <time>2019-02-09T08:48:12Z</time>
      </trkpt>
      <trkpt lat="42.72911" lon="1.96726">
        <ele>1778.58</ele>
        <time>2019-02-09T08:49:03Z</time>
      </trkpt>
      <trkpt lat="42.7291" lon="1.96731">
        <ele>1781.94</ele>
        <time>2019-02-09T08:50:07Z</time>
      </trkpt>
      <trkpt lat="42.72916" lon="1.9674">
        <ele>1782.9</ele>
        <time>2019-02-09T08:50:19Z</time>
      </trkpt>
      <trkpt lat="42.72922" lon="1.9675">
        <ele>1785.31</ele>
        <time>2019-02-09T08:50:29Z</time>
      </trkpt>
      <trkpt lat="42.72927" lon="1.96751">
        <ele>1784.82</ele>
        <time>2019-02-09T08:52:49Z</time>
      </trkpt>
      <trkpt lat="42.72923" lon="1.96757">
        <ele>1784.82</ele>
        <time>2019-02-09T08:54:04Z</time>
      </trkpt>
      <trkpt lat="42.72926" lon="1.96768">
        <ele>1785.79</ele>
        <time>2019-02-09T08:54:14Z</time>
      </trkpt>
      <trkpt lat="42.72931" lon="1.96781">
        <ele>1786.27</ele>
        <time>2019-02-09T08:54:25Z</time>
      </trkpt>
      <trkpt lat="42.72935" lon="1.96794">
        <ele>1788.19</ele>
        <time>2019-02-09T08:54:36Z</time>
      </trkpt>
      <trkpt lat="42.7294" lon="1.96806">
        <ele>1788.67</ele>
        <time>2019-02-09T08:54:47Z</time>
      </trkpt>
      <trkpt lat="42.72941" lon="1.96816">
        <ele>1789.15</ele>
        <time>2019-02-09T08:54:57Z</time>
      </trkpt>
      <trkpt lat="42.72945" lon="1.96828">
        <ele>1790.11</ele>
        <time>2019-02-09T08:55:08Z</time>
      </trkpt>
      <trkpt lat="42.72948" lon="1.96838">
        <ele>1791.55</ele>
        <time>2019-02-09T08:55:19Z</time>
      </trkpt>
      <trkpt lat="42.72953" lon="1.96849">
        <ele>1793</ele>
        <time>2019-02-09T08:55:29Z</time>
      </trkpt>
      <trkpt lat="42.72959" lon="1.9686">
        <ele>1793.96</ele>
        <time>2019-02-09T08:55:40Z</time>
      </trkpt>
      <trkpt lat="42.72962" lon="1.96873">
        <ele>1795.4</ele>
        <time>2019-02-09T08:55:50Z</time>
      </trkpt>
      <trkpt lat="42.72966" lon="1.96886">
        <ele>1795.88</ele>
        <time>2019-02-09T08:56:01Z</time>
      </trkpt>
      <trkpt lat="42.7297" lon="1.96897">
        <ele>1797.32</ele>
        <time>2019-02-09T08:56:12Z</time>
      </trkpt>
      <trkpt lat="42.72975" lon="1.96907">
        <ele>1798.28</ele>
        <time>2019-02-09T08:56:23Z</time>
      </trkpt>
      <trkpt lat="42.7298" lon="1.9692">
        <ele>1799.73</ele>
        <time>2019-02-09T08:56:34Z</time>
      </trkpt>
      <trkpt lat="42.72986" lon="1.9693">
        <ele>1800.69</ele>
        <time>2019-02-09T08:56:44Z</time>
      </trkpt>
      <trkpt lat="42.72989" lon="1.96943">
        <ele>1801.65</ele>
        <time>2019-02-09T08:56:54Z</time>
      </trkpt>
      <trkpt lat="42.72996" lon="1.96954">
        <ele>1803.09</ele>
        <time>2019-02-09T08:57:04Z</time>
      </trkpt>
      <trkpt lat="42.73003" lon="1.96965">
        <ele>1803.57</ele>
        <time>2019-02-09T08:57:14Z</time>
      </trkpt>
      <trkpt lat="42.73008" lon="1.96977">
        <ele>1803.57</ele>
        <time>2019-02-09T08:57:36Z</time>
      </trkpt>
      <trkpt lat="42.73012" lon="1.96987">
        <ele>1804.53</ele>
        <time>2019-02-09T08:57:46Z</time>
      </trkpt>
      <trkpt lat="42.73017" lon="1.96996">
        <ele>1805.97</ele>
        <time>2019-02-09T08:57:56Z</time>
      </trkpt>
      <trkpt lat="42.73021" lon="1.97006">
        <ele>1807.42</ele>
        <time>2019-02-09T08:58:06Z</time>
      </trkpt>
      <trkpt lat="42.73026" lon="1.97017">
        <ele>1808.38</ele>
        <time>2019-02-09T08:58:16Z</time>
      </trkpt>
      <trkpt lat="42.7303" lon="1.97029">
        <ele>1808.38</ele>
        <time>2019-02-09T08:58:26Z</time>
      </trkpt>
      <trkpt lat="42.73037" lon="1.9704">
        <ele>1809.82</ele>
        <time>2019-02-09T08:58:36Z</time>
      </trkpt>
      <trkpt lat="42.73041" lon="1.9705">
        <ele>1810.3</ele>
        <time>2019-02-09T08:58:46Z</time>
      </trkpt>
      <trkpt lat="42.73046" lon="1.9706">
        <ele>1811.74</ele>
        <time>2019-02-09T08:58:57Z</time>
      </trkpt>
      <trkpt lat="42.7305" lon="1.9707">
        <ele>1812.22</ele>
        <time>2019-02-09T08:59:07Z</time>
      </trkpt>
      <trkpt lat="42.73055" lon="1.97082">
        <ele>1813.18</ele>
        <time>2019-02-09T08:59:17Z</time>
      </trkpt>
      <trkpt lat="42.7306" lon="1.97092">
        <ele>1814.15</ele>
        <time>2019-02-09T08:59:28Z</time>
      </trkpt>
      <trkpt lat="42.73065" lon="1.97102">
        <ele>1815.59</ele>
        <time>2019-02-09T08:59:38Z</time>
      </trkpt>
      <trkpt lat="42.73071" lon="1.97112">
        <ele>1816.55</ele>
        <time>2019-02-09T08:59:49Z</time>
      </trkpt>
      <trkpt lat="42.73079" lon="1.97123">
        <ele>1817.99</ele>
        <time>2019-02-09T09:00:00Z</time>
      </trkpt>
      <trkpt lat="42.73086" lon="1.97132">
        <ele>1818.95</ele>
        <time>2019-02-09T09:00:11Z</time>
      </trkpt>
      <trkpt lat="42.7309" lon="1.9714">
        <ele>1820.87</ele>
        <time>2019-02-09T09:00:21Z</time>
      </trkpt>
      <trkpt lat="42.73093" lon="1.97153">
        <ele>1820.87</ele>
        <time>2019-02-09T09:00:32Z</time>
      </trkpt>
      <trkpt lat="42.7309" lon="1.97167">
        <ele>1821.84</ele>
        <time>2019-02-09T09:00:43Z</time>
      </trkpt>
      <trkpt lat="42.73088" lon="1.97179">
        <ele>1822.32</ele>
        <time>2019-02-09T09:00:54Z</time>
      </trkpt>
      <trkpt lat="42.73089" lon="1.97192">
        <ele>1823.28</ele>
        <time>2019-02-09T09:01:05Z</time>
      </trkpt>
      <trkpt lat="42.7309" lon="1.97204">
        <ele>1824.24</ele>
        <time>2019-02-09T09:01:16Z</time>
      </trkpt>
      <trkpt lat="42.73094" lon="1.97216">
        <ele>1825.68</ele>
        <time>2019-02-09T09:01:29Z</time>
      </trkpt>
      <trkpt lat="42.73097" lon="1.97227">
        <ele>1826.16</ele>
        <time>2019-02-09T09:01:44Z</time>
      </trkpt>
      <trkpt lat="42.73096" lon="1.97239">
        <ele>1827.6</ele>
        <time>2019-02-09T09:01:57Z</time>
      </trkpt>
      <trkpt lat="42.73097" lon="1.97251">
        <ele>1828.56</ele>
        <time>2019-02-09T09:02:08Z</time>
      </trkpt>
      <trkpt lat="42.73093" lon="1.97263">
        <ele>1829.53</ele>
        <time>2019-02-09T09:02:19Z</time>
      </trkpt>
      <trkpt lat="42.73093" lon="1.97275">
        <ele>1830.97</ele>
        <time>2019-02-09T09:02:30Z</time>
      </trkpt>
      <trkpt lat="42.73094" lon="1.97288">
        <ele>1830.97</ele>
        <time>2019-02-09T09:02:41Z</time>
      </trkpt>
      <trkpt lat="42.73096" lon="1.97299">
        <ele>1831.45</ele>
        <time>2019-02-09T09:03:03Z</time>
      </trkpt>
      <trkpt lat="42.73093" lon="1.97308">
        <ele>1833.37</ele>
        <time>2019-02-09T09:03:27Z</time>
      </trkpt>
      <trkpt lat="42.73095" lon="1.9732">
        <ele>1834.33</ele>
        <time>2019-02-09T09:03:38Z</time>
      </trkpt>
      <trkpt lat="42.73098" lon="1.97332">
        <ele>1835.29</ele>
        <time>2019-02-09T09:03:49Z</time>
      </trkpt>
      <trkpt lat="42.73099" lon="1.97344">
        <ele>1835.77</ele>
        <time>2019-02-09T09:04:00Z</time>
      </trkpt>
      <trkpt lat="42.73102" lon="1.97355">
        <ele>1836.74</ele>
        <time>2019-02-09T09:04:11Z</time>
      </trkpt>
      <trkpt lat="42.73103" lon="1.97366">
        <ele>1837.7</ele>
        <time>2019-02-09T09:04:22Z</time>
      </trkpt>
      <trkpt lat="42.73104" lon="1.97379">
        <ele>1838.18</ele>
        <time>2019-02-09T09:04:33Z</time>
      </trkpt>
      <trkpt lat="42.73106" lon="1.97391">
        <ele>1840.1</ele>
        <time>2019-02-09T09:04:44Z</time>
      </trkpt>
      <trkpt lat="42.73107" lon="1.97404">
        <ele>1841.06</ele>
        <time>2019-02-09T09:04:55Z</time>
      </trkpt>
      <trkpt lat="42.73109" lon="1.97416">
        <ele>1842.02</ele>
        <time>2019-02-09T09:05:08Z</time>
      </trkpt>
      <trkpt lat="42.73109" lon="1.9743">
        <ele>1843.47</ele>
        <time>2019-02-09T09:05:19Z</time>
      </trkpt>
      <trkpt lat="42.7311" lon="1.97441">
        <ele>1843.95</ele>
        <time>2019-02-09T09:05:40Z</time>
      </trkpt>
      <trkpt lat="42.73112" lon="1.97453">
        <ele>1844.91</ele>
        <time>2019-02-09T09:05:51Z</time>
      </trkpt>
      <trkpt lat="42.73115" lon="1.97465">
        <ele>1845.87</ele>
        <time>2019-02-09T09:06:02Z</time>
      </trkpt>
      <trkpt lat="42.73116" lon="1.97478">
        <ele>1846.83</ele>
        <time>2019-02-09T09:06:13Z</time>
      </trkpt>
      <trkpt lat="42.73116" lon="1.97491">
        <ele>1847.31</ele>
        <time>2019-02-09T09:06:24Z</time>
      </trkpt>
      <trkpt lat="42.73118" lon="1.97503">
        <ele>1848.75</ele>
        <time>2019-02-09T09:06:35Z</time>
      </trkpt>
      <trkpt lat="42.73121" lon="1.97515">
        <ele>1849.23</ele>
        <time>2019-02-09T09:06:45Z</time>
      </trkpt>
      <trkpt lat="42.73123" lon="1.97528">
        <ele>1850.19</ele>
        <time>2019-02-09T09:06:55Z</time>
      </trkpt>
      <trkpt lat="42.73123" lon="1.97539">
        <ele>1850.19</ele>
        <time>2019-02-09T09:07:05Z</time>
      </trkpt>
      <trkpt lat="42.73126" lon="1.97551">
        <ele>1851.16</ele>
        <time>2019-02-09T09:07:30Z</time>
      </trkpt>
      <trkpt lat="42.73127" lon="1.97564">
        <ele>1852.12</ele>
        <time>2019-02-09T09:07:40Z</time>
      </trkpt>
      <trkpt lat="42.7313" lon="1.97575">
        <ele>1852.6</ele>
        <time>2019-02-09T09:07:50Z</time>
      </trkpt>
      <trkpt lat="42.73133" lon="1.97586">
        <ele>1853.08</ele>
        <time>2019-02-09T09:08:14Z</time>
      </trkpt>
      <trkpt lat="42.73137" lon="1.97597">
        <ele>1854.04</ele>
        <time>2019-02-09T09:08:23Z</time>
      </trkpt>
      <trkpt lat="42.7314" lon="1.97608">
        <ele>1855</ele>
        <time>2019-02-09T09:08:32Z</time>
      </trkpt>
      <trkpt lat="42.73142" lon="1.9762">
        <ele>1855.48</ele>
        <time>2019-02-09T09:08:42Z</time>
      </trkpt>
      <trkpt lat="42.73147" lon="1.97629">
        <ele>1856.44</ele>
        <time>2019-02-09T09:08:53Z</time>
      </trkpt>
      <trkpt lat="42.73153" lon="1.97639">
        <ele>1857.89</ele>
        <time>2019-02-09T09:09:04Z</time>
      </trkpt>
      <trkpt lat="42.73159" lon="1.97648">
        <ele>1860.77</ele>
        <time>2019-02-09T09:09:18Z</time>
      </trkpt>
      <trkpt lat="42.73165" lon="1.97658">
        <ele>1861.73</ele>
        <time>2019-02-09T09:09:36Z</time>
      </trkpt>
      <trkpt lat="42.73172" lon="1.97667">
        <ele>1863.17</ele>
        <time>2019-02-09T09:09:53Z</time>
      </trkpt>
      <trkpt lat="42.73181" lon="1.97684">
        <ele>1865.09</ele>
        <time>2019-02-09T09:10:18Z</time>
      </trkpt>
      <trkpt lat="42.73187" lon="1.97694">
        <ele>1865.09</ele>
        <time>2019-02-09T09:10:32Z</time>
      </trkpt>
      <trkpt lat="42.73193" lon="1.97704">
        <ele>1864.61</ele>
        <time>2019-02-09T09:10:43Z</time>
      </trkpt>
      <trkpt lat="42.73197" lon="1.97716">
        <ele>1863.65</ele>
        <time>2019-02-09T09:10:53Z</time>
      </trkpt>
      <trkpt lat="42.73201" lon="1.97725">
        <ele>1865.09</ele>
        <time>2019-02-09T09:11:04Z</time>
      </trkpt>
      <trkpt lat="42.73206" lon="1.97736">
        <ele>1866.06</ele>
        <time>2019-02-09T09:11:18Z</time>
      </trkpt>
      <trkpt lat="42.73213" lon="1.97746">
        <ele>1867.5</ele>
        <time>2019-02-09T09:11:30Z</time>
      </trkpt>
      <trkpt lat="42.73221" lon="1.97755">
        <ele>1867.98</ele>
        <time>2019-02-09T09:11:42Z</time>
      </trkpt>
      <trkpt lat="42.7323" lon="1.97761">
        <ele>1869.9</ele>
        <time>2019-02-09T09:11:56Z</time>
      </trkpt>
      <trkpt lat="42.73237" lon="1.97768">
        <ele>1870.86</ele>
        <time>2019-02-09T09:12:07Z</time>
      </trkpt>
      <trkpt lat="42.73242" lon="1.97779">
        <ele>1871.34</ele>
        <time>2019-02-09T09:12:18Z</time>
      </trkpt>
      <trkpt lat="42.7325" lon="1.97788">
        <ele>1872.79</ele>
        <time>2019-02-09T09:12:29Z</time>
      </trkpt>
      <trkpt lat="42.73253" lon="1.97791">
        <ele>1872.79</ele>
        <time>2019-02-09T09:14:08Z</time>
      </trkpt>
      <trkpt lat="42.73256" lon="1.97799">
        <ele>1873.27</ele>
        <time>2019-02-09T09:14:37Z</time>
      </trkpt>
      <trkpt lat="42.73261" lon="1.97807">
        <ele>1873.75</ele>
        <time>2019-02-09T09:15:21Z</time>
      </trkpt>
      <trkpt lat="42.73267" lon="1.97817">
        <ele>1874.71</ele>
        <time>2019-02-09T09:15:34Z</time>
      </trkpt>
      <trkpt lat="42.73272" lon="1.97827">
        <ele>1876.15</ele>
        <time>2019-02-09T09:15:52Z</time>
      </trkpt>
      <trkpt lat="42.73277" lon="1.97837">
        <ele>1876.63</ele>
        <time>2019-02-09T09:16:04Z</time>
      </trkpt>
      <trkpt lat="42.73281" lon="1.97845">
        <ele>1877.59</ele>
        <time>2019-02-09T09:16:14Z</time>
      </trkpt>
      <trkpt lat="42.73287" lon="1.97856">
        <ele>1878.55</ele>
        <time>2019-02-09T09:16:25Z</time>
      </trkpt>
      <trkpt lat="42.73291" lon="1.97868">
        <ele>1878.55</ele>
        <time>2019-02-09T09:16:35Z</time>
      </trkpt>
      <trkpt lat="42.73294" lon="1.97879">
        <ele>1880</ele>
        <time>2019-02-09T09:16:46Z</time>
      </trkpt>
      <trkpt lat="42.73299" lon="1.97891">
        <ele>1881.44</ele>
        <time>2019-02-09T09:16:57Z</time>
      </trkpt>
      <trkpt lat="42.73302" lon="1.97903">
        <ele>1882.88</ele>
        <time>2019-02-09T09:17:07Z</time>
      </trkpt>
      <trkpt lat="42.73303" lon="1.97915">
        <ele>1883.36</ele>
        <time>2019-02-09T09:17:21Z</time>
      </trkpt>
      <trkpt lat="42.73306" lon="1.97928">
        <ele>1884.32</ele>
        <time>2019-02-09T09:17:32Z</time>
      </trkpt>
      <trkpt lat="42.73308" lon="1.97941">
        <ele>1885.76</ele>
        <time>2019-02-09T09:17:44Z</time>
      </trkpt>
      <trkpt lat="42.73308" lon="1.97953">
        <ele>1885.28</ele>
        <time>2019-02-09T09:18:12Z</time>
      </trkpt>
      <trkpt lat="42.73307" lon="1.97967">
        <ele>1887.21</ele>
        <time>2019-02-09T09:18:30Z</time>
      </trkpt>
      <trkpt lat="42.73306" lon="1.97979">
        <ele>1887.69</ele>
        <time>2019-02-09T09:18:40Z</time>
      </trkpt>
      <trkpt lat="42.73307" lon="1.97992">
        <ele>1889.13</ele>
        <time>2019-02-09T09:18:51Z</time>
      </trkpt>
      <trkpt lat="42.7331" lon="1.98006">
        <ele>1890.57</ele>
        <time>2019-02-09T09:19:02Z</time>
      </trkpt>
      <trkpt lat="42.73311" lon="1.98017">
        <ele>1891.05</ele>
        <time>2019-02-09T09:19:13Z</time>
      </trkpt>
      <trkpt lat="42.73309" lon="1.98028">
        <ele>1892.97</ele>
        <time>2019-02-09T09:19:54Z</time>
      </trkpt>
      <trkpt lat="42.73312" lon="1.98041">
        <ele>1893.93</ele>
        <time>2019-02-09T09:20:04Z</time>
      </trkpt>
      <trkpt lat="42.73316" lon="1.98052">
        <ele>1894.42</ele>
        <time>2019-02-09T09:20:15Z</time>
      </trkpt>
      <trkpt lat="42.73317" lon="1.98063">
        <ele>1895.86</ele>
        <time>2019-02-09T09:20:26Z</time>
      </trkpt>
      <trkpt lat="42.73323" lon="1.98076">
        <ele>1895.86</ele>
        <time>2019-02-09T09:20:38Z</time>
      </trkpt>
      <trkpt lat="42.73327" lon="1.98086">
        <ele>1897.3</ele>
        <time>2019-02-09T09:20:50Z</time>
      </trkpt>
      <trkpt lat="42.73332" lon="1.98094">
        <ele>1898.26</ele>
        <time>2019-02-09T09:21:02Z</time>
      </trkpt>
      <trkpt lat="42.73338" lon="1.98104">
        <ele>1899.7</ele>
        <time>2019-02-09T09:21:13Z</time>
      </trkpt>
      <trkpt lat="42.73344" lon="1.98114">
        <ele>1899.7</ele>
        <time>2019-02-09T09:21:25Z</time>
      </trkpt>
      <trkpt lat="42.73349" lon="1.98124">
        <ele>1901.14</ele>
        <time>2019-02-09T09:21:38Z</time>
      </trkpt>
      <trkpt lat="42.73352" lon="1.98133">
        <ele>1902.11</ele>
        <time>2019-02-09T09:21:50Z</time>
      </trkpt>
      <trkpt lat="42.73358" lon="1.98142">
        <ele>1904.03</ele>
        <time>2019-02-09T09:22:01Z</time>
      </trkpt>
      <trkpt lat="42.73365" lon="1.98152">
        <ele>1904.99</ele>
        <time>2019-02-09T09:22:12Z</time>
      </trkpt>
      <trkpt lat="42.7337" lon="1.98163">
        <ele>1905.95</ele>
        <time>2019-02-09T09:22:23Z</time>
      </trkpt>
      <trkpt lat="42.73374" lon="1.98174">
        <ele>1906.43</ele>
        <time>2019-02-09T09:22:34Z</time>
      </trkpt>
      <trkpt lat="42.73379" lon="1.98185">
        <ele>1907.39</ele>
        <time>2019-02-09T09:22:49Z</time>
      </trkpt>
      <trkpt lat="42.73384" lon="1.98195">
        <ele>1907.87</ele>
        <time>2019-02-09T09:23:01Z</time>
      </trkpt>
      <trkpt lat="42.73388" lon="1.98206">
        <ele>1909.8</ele>
        <time>2019-02-09T09:23:13Z</time>
      </trkpt>
      <trkpt lat="42.73394" lon="1.98217">
        <ele>1910.28</ele>
        <time>2019-02-09T09:23:27Z</time>
      </trkpt>
      <trkpt lat="42.73399" lon="1.98228">
        <ele>1911.72</ele>
        <time>2019-02-09T09:23:41Z</time>
      </trkpt>
      <trkpt lat="42.73402" lon="1.9824">
        <ele>1912.2</ele>
        <time>2019-02-09T09:23:59Z</time>
      </trkpt>
      <trkpt lat="42.73405" lon="1.9825">
        <ele>1913.16</ele>
        <time>2019-02-09T09:24:13Z</time>
      </trkpt>
      <trkpt lat="42.73408" lon="1.98262">
        <ele>1914.12</ele>
        <time>2019-02-09T09:24:25Z</time>
      </trkpt>
      <trkpt lat="42.7341" lon="1.98275">
        <ele>1915.56</ele>
        <time>2019-02-09T09:24:36Z</time>
      </trkpt>
      <trkpt lat="42.73413" lon="1.98286">
        <ele>1916.53</ele>
        <time>2019-02-09T09:24:46Z</time>
      </trkpt>
      <trkpt lat="42.73416" lon="1.98299">
        <ele>1917.97</ele>
        <time>2019-02-09T09:24:56Z</time>
      </trkpt>
      <trkpt lat="42.73419" lon="1.98311">
        <ele>1919.89</ele>
        <time>2019-02-09T09:25:06Z</time>
      </trkpt>
      <trkpt lat="42.7342" lon="1.98323">
        <ele>1920.37</ele>
        <time>2019-02-09T09:25:16Z</time>
      </trkpt>
      <trkpt lat="42.73421" lon="1.98337">
        <ele>1922.29</ele>
        <time>2019-02-09T09:25:26Z</time>
      </trkpt>
      <trkpt lat="42.7342" lon="1.9835">
        <ele>1923.74</ele>
        <time>2019-02-09T09:25:36Z</time>
      </trkpt>
      <trkpt lat="42.7342" lon="1.98362">
        <ele>1924.7</ele>
        <time>2019-02-09T09:25:45Z</time>
      </trkpt>
      <trkpt lat="42.73418" lon="1.98375">
        <ele>1926.14</ele>
        <time>2019-02-09T09:25:55Z</time>
      </trkpt>
      <trkpt lat="42.73417" lon="1.98387">
        <ele>1926.14</ele>
        <time>2019-02-09T09:26:06Z</time>
      </trkpt>
      <trkpt lat="42.73417" lon="1.984">
        <ele>1927.1</ele>
        <time>2019-02-09T09:26:18Z</time>
      </trkpt>
      <trkpt lat="42.73418" lon="1.98413">
        <ele>1927.58</ele>
        <time>2019-02-09T09:26:29Z</time>
      </trkpt>
      <trkpt lat="42.73414" lon="1.98424">
        <ele>1927.1</ele>
        <time>2019-02-09T09:26:38Z</time>
      </trkpt>
      <trkpt lat="42.7341" lon="1.98437">
        <ele>1928.54</ele>
        <time>2019-02-09T09:26:48Z</time>
      </trkpt>
      <trkpt lat="42.73408" lon="1.98451">
        <ele>1928.54</ele>
        <time>2019-02-09T09:26:58Z</time>
      </trkpt>
      <trkpt lat="42.73408" lon="1.98461">
        <ele>1929.5</ele>
        <time>2019-02-09T09:27:25Z</time>
      </trkpt>
      <trkpt lat="42.73408" lon="1.98472">
        <ele>1930.46</ele>
        <time>2019-02-09T09:27:38Z</time>
      </trkpt>
      <trkpt lat="42.73406" lon="1.98486">
        <ele>1930.95</ele>
        <time>2019-02-09T09:27:49Z</time>
      </trkpt>
      <trkpt lat="42.73404" lon="1.98497">
        <ele>1931.43</ele>
        <time>2019-02-09T09:27:59Z</time>
      </trkpt>
      <trkpt lat="42.73402" lon="1.98509">
        <ele>1932.87</ele>
        <time>2019-02-09T09:28:10Z</time>
      </trkpt>
      <trkpt lat="42.73399" lon="1.98519">
        <ele>1933.83</ele>
        <time>2019-02-09T09:28:23Z</time>
      </trkpt>
      <trkpt lat="42.73394" lon="1.98531">
        <ele>1934.31</ele>
        <time>2019-02-09T09:28:33Z</time>
      </trkpt>
      <trkpt lat="42.7339" lon="1.98543">
        <ele>1935.75</ele>
        <time>2019-02-09T09:28:43Z</time>
      </trkpt>
      <trkpt lat="42.73385" lon="1.98553">
        <ele>1936.23</ele>
        <time>2019-02-09T09:28:54Z</time>
      </trkpt>
      <trkpt lat="42.7338" lon="1.98566">
        <ele>1937.19</ele>
        <time>2019-02-09T09:29:04Z</time>
      </trkpt>
      <trkpt lat="42.73377" lon="1.98576">
        <ele>1938.16</ele>
        <time>2019-02-09T09:29:15Z</time>
      </trkpt>
      <trkpt lat="42.73374" lon="1.98586">
        <ele>1939.12</ele>
        <time>2019-02-09T09:29:26Z</time>
      </trkpt>
      <trkpt lat="42.7337" lon="1.98599">
        <ele>1940.56</ele>
        <time>2019-02-09T09:29:37Z</time>
      </trkpt>
      <trkpt lat="42.73364" lon="1.98607">
        <ele>1941.52</ele>
        <time>2019-02-09T09:29:48Z</time>
      </trkpt>
      <trkpt lat="42.73357" lon="1.98619">
        <ele>1942</ele>
        <time>2019-02-09T09:29:58Z</time>
      </trkpt>
      <trkpt lat="42.73351" lon="1.98629">
        <ele>1943.44</ele>
        <time>2019-02-09T09:30:08Z</time>
      </trkpt>
      <trkpt lat="42.73347" lon="1.9864">
        <ele>1944.4</ele>
        <time>2019-02-09T09:30:19Z</time>
      </trkpt>
      <trkpt lat="42.73342" lon="1.98652">
        <ele>1945.85</ele>
        <time>2019-02-09T09:30:30Z</time>
      </trkpt>
      <trkpt lat="42.73337" lon="1.98664">
        <ele>1946.81</ele>
        <time>2019-02-09T09:30:40Z</time>
      </trkpt>
      <trkpt lat="42.73333" lon="1.98675">
        <ele>1946.81</ele>
        <time>2019-02-09T09:30:51Z</time>
      </trkpt>
      <trkpt lat="42.73327" lon="1.98684">
        <ele>1948.25</ele>
        <time>2019-02-09T09:31:02Z</time>
      </trkpt>
      <trkpt lat="42.73324" lon="1.98694">
        <ele>1949.69</ele>
        <time>2019-02-09T09:31:13Z</time>
      </trkpt>
      <trkpt lat="42.73319" lon="1.98704">
        <ele>1950.17</ele>
        <time>2019-02-09T09:31:24Z</time>
      </trkpt>
      <trkpt lat="42.73312" lon="1.98715">
        <ele>1951.13</ele>
        <time>2019-02-09T09:31:35Z</time>
      </trkpt>
      <trkpt lat="42.73306" lon="1.98724">
        <ele>1952.57</ele>
        <time>2019-02-09T09:31:45Z</time>
      </trkpt>
      <trkpt lat="42.733" lon="1.98735">
        <ele>1953.06</ele>
        <time>2019-02-09T09:32:01Z</time>
      </trkpt>
      <trkpt lat="42.73295" lon="1.98743">
        <ele>1954.5</ele>
        <time>2019-02-09T09:32:12Z</time>
      </trkpt>
      <trkpt lat="42.73289" lon="1.98754">
        <ele>1955.46</ele>
        <time>2019-02-09T09:32:23Z</time>
      </trkpt>
      <trkpt lat="42.73283" lon="1.98764">
        <ele>1956.9</ele>
        <time>2019-02-09T09:32:34Z</time>
      </trkpt>
      <trkpt lat="42.7328" lon="1.98775">
        <ele>1957.38</ele>
        <time>2019-02-09T09:32:45Z</time>
      </trkpt>
      <trkpt lat="42.73275" lon="1.98784">
        <ele>1959.78</ele>
        <time>2019-02-09T09:32:56Z</time>
      </trkpt>
      <trkpt lat="42.73269" lon="1.98793">
        <ele>1960.75</ele>
        <time>2019-02-09T09:33:07Z</time>
      </trkpt>
      <trkpt lat="42.73263" lon="1.98804">
        <ele>1960.75</ele>
        <time>2019-02-09T09:33:17Z</time>
      </trkpt>
      <trkpt lat="42.73256" lon="1.98812">
        <ele>1962.19</ele>
        <time>2019-02-09T09:33:28Z</time>
      </trkpt>
      <trkpt lat="42.73247" lon="1.98815">
        <ele>1963.15</ele>
        <time>2019-02-09T09:33:39Z</time>
      </trkpt>
      <trkpt lat="42.73238" lon="1.98816">
        <ele>1964.59</ele>
        <time>2019-02-09T09:33:49Z</time>
      </trkpt>
      <trkpt lat="42.73229" lon="1.98815">
        <ele>1966.03</ele>
        <time>2019-02-09T09:33:59Z</time>
      </trkpt>
      <trkpt lat="42.7322" lon="1.98816">
        <ele>1966.99</ele>
        <time>2019-02-09T09:34:10Z</time>
      </trkpt>
      <trkpt lat="42.73209" lon="1.98817">
        <ele>1967.48</ele>
        <time>2019-02-09T09:34:21Z</time>
      </trkpt>
      <trkpt lat="42.732" lon="1.98817">
        <ele>1968.44</ele>
        <time>2019-02-09T09:34:31Z</time>
      </trkpt>
      <trkpt lat="42.73192" lon="1.98816">
        <ele>1968.92</ele>
        <time>2019-02-09T09:34:41Z</time>
      </trkpt>
      <trkpt lat="42.73183" lon="1.98817">
        <ele>1969.4</ele>
        <time>2019-02-09T09:34:52Z</time>
      </trkpt>
      <trkpt lat="42.73176" lon="1.98818">
        <ele>1970.36</ele>
        <time>2019-02-09T09:35:28Z</time>
      </trkpt>
      <trkpt lat="42.73167" lon="1.98822">
        <ele>1971.32</ele>
        <time>2019-02-09T09:35:39Z</time>
      </trkpt>
      <trkpt lat="42.73159" lon="1.98827">
        <ele>1971.8</ele>
        <time>2019-02-09T09:35:51Z</time>
      </trkpt>
      <trkpt lat="42.7315" lon="1.9883">
        <ele>1971.8</ele>
        <time>2019-02-09T09:36:06Z</time>
      </trkpt>
      <trkpt lat="42.73142" lon="1.98834">
        <ele>1972.28</ele>
        <time>2019-02-09T09:36:19Z</time>
      </trkpt>
      <trkpt lat="42.73133" lon="1.98836">
        <ele>1972.76</ele>
        <time>2019-02-09T09:36:30Z</time>
      </trkpt>
      <trkpt lat="42.73123" lon="1.98834">
        <ele>1973.24</ele>
        <time>2019-02-09T09:36:42Z</time>
      </trkpt>
      <trkpt lat="42.73116" lon="1.98834">
        <ele>1973.72</ele>
        <time>2019-02-09T09:36:55Z</time>
      </trkpt>
      <trkpt lat="42.73107" lon="1.98829">
        <ele>1974.2</ele>
        <time>2019-02-09T09:37:06Z</time>
      </trkpt>
      <trkpt lat="42.73099" lon="1.98825">
        <ele>1974.69</ele>
        <time>2019-02-09T09:37:18Z</time>
      </trkpt>
      <trkpt lat="42.73091" lon="1.9882">
        <ele>1975.17</ele>
        <time>2019-02-09T09:37:32Z</time>
      </trkpt>
      <trkpt lat="42.73082" lon="1.98817">
        <ele>1975.65</ele>
        <time>2019-02-09T09:37:45Z</time>
      </trkpt>
      <trkpt lat="42.73075" lon="1.98813">
        <ele>1975.65</ele>
        <time>2019-02-09T09:38:07Z</time>
      </trkpt>
      <trkpt lat="42.73068" lon="1.98808">
        <ele>1977.09</ele>
        <time>2019-02-09T09:38:19Z</time>
      </trkpt>
      <trkpt lat="42.73059" lon="1.98803">
        <ele>1976.13</ele>
        <time>2019-02-09T09:38:30Z</time>
      </trkpt>
      <trkpt lat="42.7305" lon="1.988">
        <ele>1977.57</ele>
        <time>2019-02-09T09:38:41Z</time>
      </trkpt>
      <trkpt lat="42.73042" lon="1.98797">
        <ele>1978.05</ele>
        <time>2019-02-09T09:38:52Z</time>
      </trkpt>
      <trkpt lat="42.73034" lon="1.98793">
        <ele>1978.53</ele>
        <time>2019-02-09T09:39:04Z</time>
      </trkpt>
      <trkpt lat="42.73024" lon="1.98794">
        <ele>1979.49</ele>
        <time>2019-02-09T09:39:17Z</time>
      </trkpt>
      <trkpt lat="42.73015" lon="1.98793">
        <ele>1979.01</ele>
        <time>2019-02-09T09:39:29Z</time>
      </trkpt>
      <trkpt lat="42.73006" lon="1.98787">
        <ele>1979.01</ele>
        <time>2019-02-09T09:39:41Z</time>
      </trkpt>
      <trkpt lat="42.72999" lon="1.98783">
        <ele>1982.38</ele>
        <time>2019-02-09T09:39:52Z</time>
      </trkpt>
      <trkpt lat="42.72991" lon="1.98777">
        <ele>1981.41</ele>
        <time>2019-02-09T09:40:03Z</time>
      </trkpt>
      <trkpt lat="42.72982" lon="1.98773">
        <ele>1981.9</ele>
        <time>2019-02-09T09:40:15Z</time>
      </trkpt>
      <trkpt lat="42.72976" lon="1.98776">
        <ele>1982.86</ele>
        <time>2019-02-09T09:40:27Z</time>
      </trkpt>
      <trkpt lat="42.72969" lon="1.98778">
        <ele>1983.34</ele>
        <time>2019-02-09T09:40:38Z</time>
      </trkpt>
      <trkpt lat="42.7296" lon="1.98777">
        <ele>1983.34</ele>
        <time>2019-02-09T09:40:49Z</time>
      </trkpt>
      <trkpt lat="42.7295" lon="1.98774">
        <ele>1984.78</ele>
        <time>2019-02-09T09:41:00Z</time>
      </trkpt>
      <trkpt lat="42.7294" lon="1.9877">
        <ele>1984.78</ele>
        <time>2019-02-09T09:41:11Z</time>
      </trkpt>
      <trkpt lat="42.72932" lon="1.98765">
        <ele>1985.74</ele>
        <time>2019-02-09T09:41:22Z</time>
      </trkpt>
      <trkpt lat="42.72926" lon="1.9876">
        <ele>1986.7</ele>
        <time>2019-02-09T09:41:33Z</time>
      </trkpt>
      <trkpt lat="42.72918" lon="1.98752">
        <ele>1988.14</ele>
        <time>2019-02-09T09:41:45Z</time>
      </trkpt>
      <trkpt lat="42.7291" lon="1.98746">
        <ele>1989.59</ele>
        <time>2019-02-09T09:41:56Z</time>
      </trkpt>
      <trkpt lat="42.72901" lon="1.98742">
        <ele>1990.07</ele>
        <time>2019-02-09T09:42:08Z</time>
      </trkpt>
      <trkpt lat="42.72894" lon="1.98733">
        <ele>1991.99</ele>
        <time>2019-02-09T09:42:19Z</time>
      </trkpt>
      <trkpt lat="42.72887" lon="1.98723">
        <ele>1991.99</ele>
        <time>2019-02-09T09:42:31Z</time>
      </trkpt>
      <trkpt lat="42.72885" lon="1.98712">
        <ele>1993.43</ele>
        <time>2019-02-09T09:42:48Z</time>
      </trkpt>
      <trkpt lat="42.72885" lon="1.98701">
        <ele>1993.43</ele>
        <time>2019-02-09T09:43:12Z</time>
      </trkpt>
      <trkpt lat="42.72881" lon="1.9869">
        <ele>1992.95</ele>
        <time>2019-02-09T09:43:22Z</time>
      </trkpt>
      <trkpt lat="42.72875" lon="1.98681">
        <ele>1991.99</ele>
        <time>2019-02-09T09:43:32Z</time>
      </trkpt>
      <trkpt lat="42.72868" lon="1.98674">
        <ele>1991.51</ele>
        <time>2019-02-09T09:43:44Z</time>
      </trkpt>
      <trkpt lat="42.72858" lon="1.98673">
        <ele>1994.87</ele>
        <time>2019-02-09T09:43:57Z</time>
      </trkpt>
      <trkpt lat="42.7285" lon="1.98667">
        <ele>1995.83</ele>
        <time>2019-02-09T09:44:08Z</time>
      </trkpt>
      <trkpt lat="42.72844" lon="1.98659">
        <ele>1996.8</ele>
        <time>2019-02-09T09:44:21Z</time>
      </trkpt>
      <trkpt lat="42.72837" lon="1.98657">
        <ele>1995.83</ele>
        <time>2019-02-09T09:44:47Z</time>
      </trkpt>
      <trkpt lat="42.7283" lon="1.98655">
        <ele>1997.76</ele>
        <time>2019-02-09T09:45:20Z</time>
      </trkpt>
      <trkpt lat="42.72822" lon="1.98646">
        <ele>1997.28</ele>
        <time>2019-02-09T09:45:32Z</time>
      </trkpt>
      <trkpt lat="42.72815" lon="1.98639">
        <ele>1995.83</ele>
        <time>2019-02-09T09:45:43Z</time>
      </trkpt>
      <trkpt lat="42.72807" lon="1.98638">
        <ele>1998.72</ele>
        <time>2019-02-09T09:45:54Z</time>
      </trkpt>
      <trkpt lat="42.72799" lon="1.98631">
        <ele>1998.24</ele>
        <time>2019-02-09T09:46:04Z</time>
      </trkpt>
      <trkpt lat="42.72792" lon="1.98621">
        <ele>1998.24</ele>
        <time>2019-02-09T09:46:15Z</time>
      </trkpt>
      <trkpt lat="42.72787" lon="1.9861">
        <ele>1999.2</ele>
        <time>2019-02-09T09:46:25Z</time>
      </trkpt>
      <trkpt lat="42.72783" lon="1.98598">
        <ele>1998.72</ele>
        <time>2019-02-09T09:46:36Z</time>
      </trkpt>
      <trkpt lat="42.72778" lon="1.98588">
        <ele>1997.28</ele>
        <time>2019-02-09T09:46:46Z</time>
      </trkpt>
      <trkpt lat="42.72772" lon="1.98578">
        <ele>1997.76</ele>
        <time>2019-02-09T09:46:56Z</time>
      </trkpt>
      <trkpt lat="42.72763" lon="1.9857">
        <ele>1998.72</ele>
        <time>2019-02-09T09:47:07Z</time>
      </trkpt>
      <trkpt lat="42.72754" lon="1.98565">
        <ele>2000.16</ele>
        <time>2019-02-09T09:47:17Z</time>
      </trkpt>
      <trkpt lat="42.72744" lon="1.98561">
        <ele>1999.68</ele>
        <time>2019-02-09T09:47:27Z</time>
      </trkpt>
      <trkpt lat="42.72736" lon="1.98556">
        <ele>2001.12</ele>
        <time>2019-02-09T09:47:37Z</time>
      </trkpt>
      <trkpt lat="42.72726" lon="1.98551">
        <ele>2000.16</ele>
        <time>2019-02-09T09:47:47Z</time>
      </trkpt>
      <trkpt lat="42.72718" lon="1.98546">
        <ele>2001.12</ele>
        <time>2019-02-09T09:47:58Z</time>
      </trkpt>
      <trkpt lat="42.72709" lon="1.98541">
        <ele>2003.52</ele>
        <time>2019-02-09T09:48:09Z</time>
      </trkpt>
      <trkpt lat="42.72701" lon="1.98536">
        <ele>2002.56</ele>
        <time>2019-02-09T09:48:18Z</time>
      </trkpt>
      <trkpt lat="42.72693" lon="1.98532">
        <ele>2003.04</ele>
        <time>2019-02-09T09:48:27Z</time>
      </trkpt>
      <trkpt lat="42.72684" lon="1.98528">
        <ele>2004.49</ele>
        <time>2019-02-09T09:48:37Z</time>
      </trkpt>
      <trkpt lat="42.72676" lon="1.98525">
        <ele>2005.45</ele>
        <time>2019-02-09T09:48:46Z</time>
      </trkpt>
      <trkpt lat="42.72667" lon="1.98521">
        <ele>2005.93</ele>
        <time>2019-02-09T09:48:55Z</time>
      </trkpt>
      <trkpt lat="42.72658" lon="1.98518">
        <ele>2005.93</ele>
        <time>2019-02-09T09:49:05Z</time>
      </trkpt>
      <trkpt lat="42.72649" lon="1.98514">
        <ele>2006.41</ele>
        <time>2019-02-09T09:49:15Z</time>
      </trkpt>
      <trkpt lat="42.72639" lon="1.98508">
        <ele>2007.37</ele>
        <time>2019-02-09T09:49:26Z</time>
      </trkpt>
      <trkpt lat="42.72629" lon="1.98502">
        <ele>2007.37</ele>
        <time>2019-02-09T09:49:36Z</time>
      </trkpt>
      <trkpt lat="42.72621" lon="1.98494">
        <ele>2009.77</ele>
        <time>2019-02-09T09:49:46Z</time>
      </trkpt>
      <trkpt lat="42.72614" lon="1.98486">
        <ele>2009.77</ele>
        <time>2019-02-09T09:49:59Z</time>
      </trkpt>
      <trkpt lat="42.72607" lon="1.98478">
        <ele>2008.81</ele>
        <time>2019-02-09T09:50:10Z</time>
      </trkpt>
      <trkpt lat="42.726" lon="1.98471">
        <ele>2009.29</ele>
        <time>2019-02-09T09:50:21Z</time>
      </trkpt>
      <trkpt lat="42.72592" lon="1.98466">
        <ele>2009.29</ele>
        <time>2019-02-09T09:50:31Z</time>
      </trkpt>
      <trkpt lat="42.72585" lon="1.9846">
        <ele>2009.77</ele>
        <time>2019-02-09T09:50:41Z</time>
      </trkpt>
      <trkpt lat="42.72577" lon="1.98453">
        <ele>2011.22</ele>
        <time>2019-02-09T09:50:52Z</time>
      </trkpt>
      <trkpt lat="42.72568" lon="1.98447">
        <ele>2013.14</ele>
        <time>2019-02-09T09:51:02Z</time>
      </trkpt>
      <trkpt lat="42.7256" lon="1.98441">
        <ele>2013.62</ele>
        <time>2019-02-09T09:51:15Z</time>
      </trkpt>
      <trkpt lat="42.72552" lon="1.98436">
        <ele>2012.18</ele>
        <time>2019-02-09T09:51:27Z</time>
      </trkpt>
      <trkpt lat="42.72545" lon="1.98429">
        <ele>2013.62</ele>
        <time>2019-02-09T09:51:38Z</time>
      </trkpt>
      <trkpt lat="42.72536" lon="1.98423">
        <ele>2015.06</ele>
        <time>2019-02-09T09:51:48Z</time>
      </trkpt>
      <trkpt lat="42.72527" lon="1.98415">
        <ele>2015.06</ele>
        <time>2019-02-09T09:51:58Z</time>
      </trkpt>
      <trkpt lat="42.7252" lon="1.98407">
        <ele>2015.54</ele>
        <time>2019-02-09T09:52:08Z</time>
      </trkpt>
      <trkpt lat="42.72513" lon="1.98398">
        <ele>2015.54</ele>
        <time>2019-02-09T09:52:18Z</time>
      </trkpt>
      <trkpt lat="42.72505" lon="1.98394">
        <ele>2016.98</ele>
        <time>2019-02-09T09:52:28Z</time>
      </trkpt>
      <trkpt lat="42.72498" lon="1.98387">
        <ele>2016.5</ele>
        <time>2019-02-09T09:52:38Z</time>
      </trkpt>
      <trkpt lat="42.72491" lon="1.98379">
        <ele>2017.46</ele>
        <time>2019-02-09T09:52:48Z</time>
      </trkpt>
      <trkpt lat="42.72483" lon="1.98371">
        <ele>2016.5</ele>
        <time>2019-02-09T09:52:58Z</time>
      </trkpt>
      <trkpt lat="42.72475" lon="1.98364">
        <ele>2017.46</ele>
        <time>2019-02-09T09:53:08Z</time>
      </trkpt>
      <trkpt lat="42.72467" lon="1.98358">
        <ele>2018.43</ele>
        <time>2019-02-09T09:53:17Z</time>
      </trkpt>
      <trkpt lat="42.72459" lon="1.98351">
        <ele>2018.91</ele>
        <time>2019-02-09T09:53:27Z</time>
      </trkpt>
      <trkpt lat="42.72452" lon="1.98343">
        <ele>2018.43</ele>
        <time>2019-02-09T09:53:37Z</time>
      </trkpt>
      <trkpt lat="42.72445" lon="1.98336">
        <ele>2018.91</ele>
        <time>2019-02-09T09:53:47Z</time>
      </trkpt>
      <trkpt lat="42.72438" lon="1.98327">
        <ele>2020.83</ele>
        <time>2019-02-09T09:53:57Z</time>
      </trkpt>
      <trkpt lat="42.72434" lon="1.9832">
        <ele>2020.35</ele>
        <time>2019-02-09T09:54:11Z</time>
      </trkpt>
      <trkpt lat="42.72428" lon="1.98315">
        <ele>2020.83</ele>
        <time>2019-02-09T09:54:38Z</time>
      </trkpt>
      <trkpt lat="42.72422" lon="1.98308">
        <ele>2020.35</ele>
        <time>2019-02-09T09:54:49Z</time>
      </trkpt>
      <trkpt lat="42.72415" lon="1.983">
        <ele>2021.31</ele>
        <time>2019-02-09T09:54:59Z</time>
      </trkpt>
      <trkpt lat="42.72407" lon="1.98293">
        <ele>2023.23</ele>
        <time>2019-02-09T09:55:09Z</time>
      </trkpt>
      <trkpt lat="42.724" lon="1.98285">
        <ele>2023.23</ele>
        <time>2019-02-09T09:55:19Z</time>
      </trkpt>
      <trkpt lat="42.72393" lon="1.98278">
        <ele>2023.71</ele>
        <time>2019-02-09T09:55:29Z</time>
      </trkpt>
      <trkpt lat="42.72387" lon="1.98269">
        <ele>2024.19</ele>
        <time>2019-02-09T09:55:39Z</time>
      </trkpt>
      <trkpt lat="42.72381" lon="1.98261">
        <ele>2024.67</ele>
        <time>2019-02-09T09:55:50Z</time>
      </trkpt>
      <trkpt lat="42.72374" lon="1.98252">
        <ele>2026.6</ele>
        <time>2019-02-09T09:56:02Z</time>
      </trkpt>
      <trkpt lat="42.72367" lon="1.98245">
        <ele>2027.56</ele>
        <time>2019-02-09T09:56:14Z</time>
      </trkpt>
      <trkpt lat="42.7236" lon="1.98239">
        <ele>2028.52</ele>
        <time>2019-02-09T09:56:26Z</time>
      </trkpt>
      <trkpt lat="42.72355" lon="1.98234">
        <ele>2030.44</ele>
        <time>2019-02-09T09:56:45Z</time>
      </trkpt>
      <trkpt lat="42.72351" lon="1.98233">
        <ele>2029.48</ele>
        <time>2019-02-09T09:57:30Z</time>
      </trkpt>
      <trkpt lat="42.72345" lon="1.98228">
        <ele>2030.92</ele>
        <time>2019-02-09T09:57:43Z</time>
      </trkpt>
      <trkpt lat="42.72338" lon="1.98222">
        <ele>2032.84</ele>
        <time>2019-02-09T10:00:54Z</time>
      </trkpt>
      <trkpt lat="42.72331" lon="1.98217">
        <ele>2033.81</ele>
        <time>2019-02-09T10:01:06Z</time>
      </trkpt>
      <trkpt lat="42.72323" lon="1.98216">
        <ele>2036.21</ele>
        <time>2019-02-09T10:01:21Z</time>
      </trkpt>
      <trkpt lat="42.72315" lon="1.98211">
        <ele>2040.05</ele>
        <time>2019-02-09T10:01:36Z</time>
      </trkpt>
      <trkpt lat="42.72306" lon="1.98208">
        <ele>2041.5</ele>
        <time>2019-02-09T10:01:50Z</time>
      </trkpt>
      <trkpt lat="42.72297" lon="1.9821">
        <ele>2043.9</ele>
        <time>2019-02-09T10:02:04Z</time>
      </trkpt>
      <trkpt lat="42.72289" lon="1.98205">
        <ele>2044.86</ele>
        <time>2019-02-09T10:02:17Z</time>
      </trkpt>
      <trkpt lat="42.72282" lon="1.98199">
        <ele>2045.34</ele>
        <time>2019-02-09T10:02:29Z</time>
      </trkpt>
      <trkpt lat="42.72275" lon="1.98192">
        <ele>2048.71</ele>
        <time>2019-02-09T10:02:44Z</time>
      </trkpt>
      <trkpt lat="42.72268" lon="1.98183">
        <ele>2050.15</ele>
        <time>2019-02-09T10:03:09Z</time>
      </trkpt>
      <trkpt lat="42.72264" lon="1.98171">
        <ele>2053.03</ele>
        <time>2019-02-09T10:03:50Z</time>
      </trkpt>
      <trkpt lat="42.72259" lon="1.98158">
        <ele>2056.4</ele>
        <time>2019-02-09T10:04:08Z</time>
      </trkpt>
      <trkpt lat="42.72257" lon="1.98146">
        <ele>2059.28</ele>
        <time>2019-02-09T10:04:24Z</time>
      </trkpt>
      <trkpt lat="42.72258" lon="1.98138">
        <ele>2060.72</ele>
        <time>2019-02-09T10:04:36Z</time>
      </trkpt>
      <trkpt lat="42.72259" lon="1.98128">
        <ele>2063.13</ele>
        <time>2019-02-09T10:04:55Z</time>
      </trkpt>
      <trkpt lat="42.72258" lon="1.98119">
        <ele>2064.57</ele>
        <time>2019-02-09T10:05:06Z</time>
      </trkpt>
      <trkpt lat="42.72257" lon="1.98112">
        <ele>2066.01</ele>
        <time>2019-02-09T10:05:19Z</time>
      </trkpt>
      <trkpt lat="42.72253" lon="1.98092">
        <ele>2069.86</ele>
        <time>2019-02-09T10:05:48Z</time>
      </trkpt>
      <trkpt lat="42.72251" lon="1.98082">
        <ele>2072.74</ele>
        <time>2019-02-09T10:06:04Z</time>
      </trkpt>
      <trkpt lat="42.72253" lon="1.98069">
        <ele>2074.66</ele>
        <time>2019-02-09T10:06:21Z</time>
      </trkpt>
      <trkpt lat="42.72256" lon="1.98059">
        <ele>2077.07</ele>
        <time>2019-02-09T10:06:38Z</time>
      </trkpt>
      <trkpt lat="42.72257" lon="1.98047">
        <ele>2078.99</ele>
        <time>2019-02-09T10:06:56Z</time>
      </trkpt>
      <trkpt lat="42.72259" lon="1.98036">
        <ele>2082.35</ele>
        <time>2019-02-09T10:07:18Z</time>
      </trkpt>
      <trkpt lat="42.72259" lon="1.98024">
        <ele>2084.28</ele>
        <time>2019-02-09T10:07:34Z</time>
      </trkpt>
      <trkpt lat="42.72258" lon="1.98013">
        <ele>2086.2</ele>
        <time>2019-02-09T10:07:59Z</time>
      </trkpt>
      <trkpt lat="42.72257" lon="1.98001">
        <ele>2088.6</ele>
        <time>2019-02-09T10:08:16Z</time>
      </trkpt>
      <trkpt lat="42.72254" lon="1.9799">
        <ele>2090.52</ele>
        <time>2019-02-09T10:08:32Z</time>
      </trkpt>
      <trkpt lat="42.72252" lon="1.97978">
        <ele>2093.41</ele>
        <time>2019-02-09T10:08:52Z</time>
      </trkpt>
      <trkpt lat="42.72247" lon="1.97968">
        <ele>2095.81</ele>
        <time>2019-02-09T10:09:10Z</time>
      </trkpt>
      <trkpt lat="42.72241" lon="1.97959">
        <ele>2098.21</ele>
        <time>2019-02-09T10:09:29Z</time>
      </trkpt>
      <trkpt lat="42.72236" lon="1.9795">
        <ele>2100.14</ele>
        <time>2019-02-09T10:09:48Z</time>
      </trkpt>
      <trkpt lat="42.72232" lon="1.97939">
        <ele>2103.5</ele>
        <time>2019-02-09T10:10:05Z</time>
      </trkpt>
      <trkpt lat="42.72226" lon="1.97929">
        <ele>2105.91</ele>
        <time>2019-02-09T10:10:26Z</time>
      </trkpt>
      <trkpt lat="42.72221" lon="1.9792">
        <ele>2107.83</ele>
        <time>2019-02-09T10:10:47Z</time>
      </trkpt>
      <trkpt lat="42.72215" lon="1.97912">
        <ele>2110.71</ele>
        <time>2019-02-09T10:11:03Z</time>
      </trkpt>
      <trkpt lat="42.72208" lon="1.97905">
        <ele>2112.63</ele>
        <time>2019-02-09T10:11:21Z</time>
      </trkpt>
      <trkpt lat="42.72204" lon="1.97895">
        <ele>2114.08</ele>
        <time>2019-02-09T10:11:38Z</time>
      </trkpt>
      <trkpt lat="42.72197" lon="1.9789">
        <ele>2118.4</ele>
        <time>2019-02-09T10:12:00Z</time>
      </trkpt>
      <trkpt lat="42.72192" lon="1.97884">
        <ele>2119.84</ele>
        <time>2019-02-09T10:12:16Z</time>
      </trkpt>
      <trkpt lat="42.72186" lon="1.97875">
        <ele>2121.77</ele>
        <time>2019-02-09T10:12:33Z</time>
      </trkpt>
      <trkpt lat="42.72184" lon="1.97864">
        <ele>2122.73</ele>
        <time>2019-02-09T10:12:47Z</time>
      </trkpt>
      <trkpt lat="42.72183" lon="1.97852">
        <ele>2124.65</ele>
        <time>2019-02-09T10:13:04Z</time>
      </trkpt>
      <trkpt lat="42.7218" lon="1.97839">
        <ele>2126.57</ele>
        <time>2019-02-09T10:13:18Z</time>
      </trkpt>
      <trkpt lat="42.72177" lon="1.9783">
        <ele>2128.02</ele>
        <time>2019-02-09T10:13:29Z</time>
      </trkpt>
      <trkpt lat="42.72176" lon="1.97816">
        <ele>2130.42</ele>
        <time>2019-02-09T10:13:46Z</time>
      </trkpt>
      <trkpt lat="42.72174" lon="1.97807">
        <ele>2131.38</ele>
        <time>2019-02-09T10:13:55Z</time>
      </trkpt>
      <trkpt lat="42.72174" lon="1.97798">
        <ele>2131.86</ele>
        <time>2019-02-09T10:14:07Z</time>
      </trkpt>
      <trkpt lat="42.72172" lon="1.9779">
        <ele>2134.26</ele>
        <time>2019-02-09T10:14:23Z</time>
      </trkpt>
      <trkpt lat="42.72163" lon="1.97793">
        <ele>2137.15</ele>
        <time>2019-02-09T10:14:44Z</time>
      </trkpt>
      <trkpt lat="42.72158" lon="1.97805">
        <ele>2139.55</ele>
        <time>2019-02-09T10:15:03Z</time>
      </trkpt>
      <trkpt lat="42.72154" lon="1.97814">
        <ele>2140.51</ele>
        <time>2019-02-09T10:15:13Z</time>
      </trkpt>
      <trkpt lat="42.72146" lon="1.97817">
        <ele>2142.92</ele>
        <time>2019-02-09T10:15:28Z</time>
      </trkpt>
      <trkpt lat="42.72138" lon="1.97813">
        <ele>2143.88</ele>
        <time>2019-02-09T10:15:48Z</time>
      </trkpt>
      <trkpt lat="42.72134" lon="1.97806">
        <ele>2146.28</ele>
        <time>2019-02-09T10:16:28Z</time>
      </trkpt>
      <trkpt lat="42.72128" lon="1.97797">
        <ele>2149.16</ele>
        <time>2019-02-09T10:16:49Z</time>
      </trkpt>
      <trkpt lat="42.72121" lon="1.97789">
        <ele>2152.05</ele>
        <time>2019-02-09T10:17:17Z</time>
      </trkpt>
      <trkpt lat="42.72115" lon="1.97779">
        <ele>2154.93</ele>
        <time>2019-02-09T10:17:38Z</time>
      </trkpt>
      <trkpt lat="42.72109" lon="1.97773">
        <ele>2157.82</ele>
        <time>2019-02-09T10:18:01Z</time>
      </trkpt>
      <trkpt lat="42.72104" lon="1.97765">
        <ele>2159.74</ele>
        <time>2019-02-09T10:18:21Z</time>
      </trkpt>
      <trkpt lat="42.72099" lon="1.97757">
        <ele>2162.62</ele>
        <time>2019-02-09T10:18:42Z</time>
      </trkpt>
      <trkpt lat="42.72094" lon="1.97749">
        <ele>2165.03</ele>
        <time>2019-02-09T10:19:03Z</time>
      </trkpt>
      <trkpt lat="42.72088" lon="1.9774">
        <ele>2166.47</ele>
        <time>2019-02-09T10:19:20Z</time>
      </trkpt>
      <trkpt lat="42.72082" lon="1.97733">
        <ele>2168.39</ele>
        <time>2019-02-09T10:19:35Z</time>
      </trkpt>
      <trkpt lat="42.72075" lon="1.97732">
        <ele>2170.31</ele>
        <time>2019-02-09T10:19:56Z</time>
      </trkpt>
      <trkpt lat="42.72064" lon="1.97731">
        <ele>2172.24</ele>
        <time>2019-02-09T10:20:18Z</time>
      </trkpt>
      <trkpt lat="42.72055" lon="1.97728">
        <ele>2174.16</ele>
        <time>2019-02-09T10:20:28Z</time>
      </trkpt>
      <trkpt lat="42.7205" lon="1.97722">
        <ele>2174.16</ele>
        <time>2019-02-09T10:20:38Z</time>
      </trkpt>
      <trkpt lat="42.72044" lon="1.97714">
        <ele>2175.12</ele>
        <time>2019-02-09T10:20:53Z</time>
      </trkpt>
      <trkpt lat="42.72039" lon="1.97704">
        <ele>2177.04</ele>
        <time>2019-02-09T10:21:08Z</time>
      </trkpt>
      <trkpt lat="42.72034" lon="1.97689">
        <ele>2179.45</ele>
        <time>2019-02-09T10:21:30Z</time>
      </trkpt>
      <trkpt lat="42.72027" lon="1.97679">
        <ele>2180.41</ele>
        <time>2019-02-09T10:21:44Z</time>
      </trkpt>
      <trkpt lat="42.72023" lon="1.9767">
        <ele>2182.33</ele>
        <time>2019-02-09T10:21:58Z</time>
      </trkpt>
      <trkpt lat="42.72018" lon="1.97661">
        <ele>2183.29</ele>
        <time>2019-02-09T10:22:10Z</time>
      </trkpt>
      <trkpt lat="42.72015" lon="1.97654">
        <ele>2184.25</ele>
        <time>2019-02-09T10:22:20Z</time>
      </trkpt>
      <trkpt lat="42.72009" lon="1.9765">
        <ele>2186.18</ele>
        <time>2019-02-09T10:22:37Z</time>
      </trkpt>
      <trkpt lat="42.72003" lon="1.9765">
        <ele>2185.69</ele>
        <time>2019-02-09T10:25:26Z</time>
      </trkpt>
      <trkpt lat="42.71995" lon="1.97652">
        <ele>2187.62</ele>
        <time>2019-02-09T10:26:15Z</time>
      </trkpt>
      <trkpt lat="42.71987" lon="1.97648">
        <ele>2187.14</ele>
        <time>2019-02-09T10:26:28Z</time>
      </trkpt>
      <trkpt lat="42.71979" lon="1.97642">
        <ele>2188.58</ele>
        <time>2019-02-09T10:26:45Z</time>
      </trkpt>
      <trkpt lat="42.71974" lon="1.97633">
        <ele>2190.98</ele>
        <time>2019-02-09T10:27:06Z</time>
      </trkpt>
      <trkpt lat="42.71968" lon="1.97623">
        <ele>2190.5</ele>
        <time>2019-02-09T10:27:19Z</time>
      </trkpt>
      <trkpt lat="42.71965" lon="1.97611">
        <ele>2190.5</ele>
        <time>2019-02-09T10:27:30Z</time>
      </trkpt>
      <trkpt lat="42.7196" lon="1.976">
        <ele>2191.46</ele>
        <time>2019-02-09T10:27:43Z</time>
      </trkpt>
      <trkpt lat="42.71954" lon="1.97592">
        <ele>2194.35</ele>
        <time>2019-02-09T10:27:59Z</time>
      </trkpt>
      <trkpt lat="42.7195" lon="1.97583">
        <ele>2196.75</ele>
        <time>2019-02-09T10:28:16Z</time>
      </trkpt>
      <trkpt lat="42.71945" lon="1.97575">
        <ele>2196.75</ele>
        <time>2019-02-09T10:28:42Z</time>
      </trkpt>
      <trkpt lat="42.71937" lon="1.97569">
        <ele>2193.39</ele>
        <time>2019-02-09T10:28:54Z</time>
      </trkpt>
      <trkpt lat="42.71929" lon="1.97566">
        <ele>2190.98</ele>
        <time>2019-02-09T10:29:06Z</time>
      </trkpt>
      <trkpt lat="42.71921" lon="1.97561">
        <ele>2186.66</ele>
        <time>2019-02-09T10:29:20Z</time>
      </trkpt>
      <trkpt lat="42.71917" lon="1.97549">
        <ele>2184.73</ele>
        <time>2019-02-09T10:29:30Z</time>
      </trkpt>
      <trkpt lat="42.71913" lon="1.97539">
        <ele>2184.73</ele>
        <time>2019-02-09T10:29:40Z</time>
      </trkpt>
      <trkpt lat="42.7191" lon="1.97531">
        <ele>2186.18</ele>
        <time>2019-02-09T10:30:17Z</time>
      </trkpt>
      <trkpt lat="42.71903" lon="1.97522">
        <ele>2187.62</ele>
        <time>2019-02-09T10:30:31Z</time>
      </trkpt>
      <trkpt lat="42.71898" lon="1.97514">
        <ele>2188.58</ele>
        <time>2019-02-09T10:30:50Z</time>
      </trkpt>
      <trkpt lat="42.71892" lon="1.97504">
        <ele>2190.5</ele>
        <time>2019-02-09T10:31:05Z</time>
      </trkpt>
      <trkpt lat="42.71888" lon="1.97495">
        <ele>2191.94</ele>
        <time>2019-02-09T10:31:16Z</time>
      </trkpt>
      <trkpt lat="42.71886" lon="1.97487">
        <ele>2192.9</ele>
        <time>2019-02-09T10:31:27Z</time>
      </trkpt>
      <trkpt lat="42.71882" lon="1.97479">
        <ele>2194.83</ele>
        <time>2019-02-09T10:31:38Z</time>
      </trkpt>
      <trkpt lat="42.71878" lon="1.97473">
        <ele>2195.79</ele>
        <time>2019-02-09T10:31:49Z</time>
      </trkpt>
      <trkpt lat="42.71877" lon="1.97466">
        <ele>2199.15</ele>
        <time>2019-02-09T10:32:08Z</time>
      </trkpt>
      <trkpt lat="42.71873" lon="1.97457">
        <ele>2201.08</ele>
        <time>2019-02-09T10:32:28Z</time>
      </trkpt>
      <trkpt lat="42.7187" lon="1.97448">
        <ele>2203</ele>
        <time>2019-02-09T10:32:47Z</time>
      </trkpt>
      <trkpt lat="42.71865" lon="1.97438">
        <ele>2205.88</ele>
        <time>2019-02-09T10:33:07Z</time>
      </trkpt>
      <trkpt lat="42.7186" lon="1.97429">
        <ele>2207.81</ele>
        <time>2019-02-09T10:33:21Z</time>
      </trkpt>
      <trkpt lat="42.71857" lon="1.97419">
        <ele>2210.21</ele>
        <time>2019-02-09T10:33:40Z</time>
      </trkpt>
      <trkpt lat="42.71852" lon="1.97409">
        <ele>2211.65</ele>
        <time>2019-02-09T10:33:58Z</time>
      </trkpt>
      <trkpt lat="42.71847" lon="1.97401">
        <ele>2213.57</ele>
        <time>2019-02-09T10:34:17Z</time>
      </trkpt>
      <trkpt lat="42.7184" lon="1.97394">
        <ele>2216.94</ele>
        <time>2019-02-09T10:34:38Z</time>
      </trkpt>
      <trkpt lat="42.71836" lon="1.97385">
        <ele>2219.34</ele>
        <time>2019-02-09T10:34:59Z</time>
      </trkpt>
      <trkpt lat="42.71831" lon="1.97378">
        <ele>2222.22</ele>
        <time>2019-02-09T10:35:20Z</time>
      </trkpt>
      <trkpt lat="42.71827" lon="1.97368">
        <ele>2224.15</ele>
        <time>2019-02-09T10:35:43Z</time>
      </trkpt>
      <trkpt lat="42.71824" lon="1.97359">
        <ele>2227.99</ele>
        <time>2019-02-09T10:36:04Z</time>
      </trkpt>
      <trkpt lat="42.7182" lon="1.9735">
        <ele>2230.4</ele>
        <time>2019-02-09T10:36:24Z</time>
      </trkpt>
      <trkpt lat="42.71816" lon="1.97341">
        <ele>2233.76</ele>
        <time>2019-02-09T10:36:45Z</time>
      </trkpt>
      <trkpt lat="42.71812" lon="1.97334">
        <ele>2235.68</ele>
        <time>2019-02-09T10:37:05Z</time>
      </trkpt>
      <trkpt lat="42.71806" lon="1.97327">
        <ele>2237.61</ele>
        <time>2019-02-09T10:37:35Z</time>
      </trkpt>
      <trkpt lat="42.718" lon="1.97318">
        <ele>2240.01</ele>
        <time>2019-02-09T10:37:55Z</time>
      </trkpt>
      <trkpt lat="42.71795" lon="1.97305">
        <ele>2242.89</ele>
        <time>2019-02-09T10:38:17Z</time>
      </trkpt>
      <trkpt lat="42.71789" lon="1.97293">
        <ele>2244.33</ele>
        <time>2019-02-09T10:38:44Z</time>
      </trkpt>
      <trkpt lat="42.71783" lon="1.97283">
        <ele>2245.3</ele>
        <time>2019-02-09T10:39:08Z</time>
      </trkpt>
      <trkpt lat="42.71789" lon="1.97279">
        <ele>2246.26</ele>
        <time>2019-02-09T10:45:40Z</time>
      </trkpt>
      <trkpt lat="42.7178" lon="1.97272">
        <ele>2247.22</ele>
        <time>2019-02-09T10:46:56Z</time>
      </trkpt>
      <trkpt lat="42.71774" lon="1.97265">
        <ele>2248.18</ele>
        <time>2019-02-09T10:47:20Z</time>
      </trkpt>
      <trkpt lat="42.71767" lon="1.97256">
        <ele>2250.58</ele>
        <time>2019-02-09T10:47:39Z</time>
      </trkpt>
      <trkpt lat="42.71761" lon="1.97248">
        <ele>2252.03</ele>
        <time>2019-02-09T10:47:53Z</time>
      </trkpt>
      <trkpt lat="42.71754" lon="1.97238">
        <ele>2256.83</ele>
        <time>2019-02-09T10:48:20Z</time>
      </trkpt>
      <trkpt lat="42.71749" lon="1.9723">
        <ele>2257.31</ele>
        <time>2019-02-09T10:48:32Z</time>
      </trkpt>
      <trkpt lat="42.71746" lon="1.97224">
        <ele>2260.2</ele>
        <time>2019-02-09T10:48:51Z</time>
      </trkpt>
      <trkpt lat="42.71738" lon="1.97218">
        <ele>2263.56</ele>
        <time>2019-02-09T10:49:10Z</time>
      </trkpt>
      <trkpt lat="42.71732" lon="1.97212">
        <ele>2267.41</ele>
        <time>2019-02-09T10:49:33Z</time>
      </trkpt>
      <trkpt lat="42.71727" lon="1.97206">
        <ele>2269.81</ele>
        <time>2019-02-09T10:50:02Z</time>
      </trkpt>
      <trkpt lat="42.71719" lon="1.97198">
        <ele>2272.21</ele>
        <time>2019-02-09T10:50:21Z</time>
      </trkpt>
      <trkpt lat="42.71714" lon="1.97192">
        <ele>2274.14</ele>
        <time>2019-02-09T10:50:38Z</time>
      </trkpt>
      <trkpt lat="42.71706" lon="1.97182">
        <ele>2275.58</ele>
        <time>2019-02-09T10:50:57Z</time>
      </trkpt>
      <trkpt lat="42.71699" lon="1.97176">
        <ele>2277.02</ele>
        <time>2019-02-09T10:51:09Z</time>
      </trkpt>
      <trkpt lat="42.7169" lon="1.97171">
        <ele>2278.46</ele>
        <time>2019-02-09T10:51:30Z</time>
      </trkpt>
      <trkpt lat="42.71684" lon="1.97164">
        <ele>2281.35</ele>
        <time>2019-02-09T10:51:49Z</time>
      </trkpt>
      <trkpt lat="42.71676" lon="1.97154">
        <ele>2284.71</ele>
        <time>2019-02-09T10:52:13Z</time>
      </trkpt>
      <trkpt lat="42.71667" lon="1.97146">
        <ele>2286.63</ele>
        <time>2019-02-09T10:52:44Z</time>
      </trkpt>
      <trkpt lat="42.71661" lon="1.9714">
        <ele>2287.59</ele>
        <time>2019-02-09T10:53:05Z</time>
      </trkpt>
      <trkpt lat="42.71654" lon="1.97135">
        <ele>2287.59</ele>
        <time>2019-02-09T10:53:20Z</time>
      </trkpt>
      <trkpt lat="42.71647" lon="1.97129">
        <ele>2288.56</ele>
        <time>2019-02-09T10:53:32Z</time>
      </trkpt>
      <trkpt lat="42.71638" lon="1.97125">
        <ele>2289.52</ele>
        <time>2019-02-09T10:53:44Z</time>
      </trkpt>
      <trkpt lat="42.71629" lon="1.97123">
        <ele>2290.96</ele>
        <time>2019-02-09T10:53:57Z</time>
      </trkpt>
      <trkpt lat="42.71624" lon="1.97115">
        <ele>2290.96</ele>
        <time>2019-02-09T10:54:12Z</time>
      </trkpt>
      <trkpt lat="42.71616" lon="1.97107">
        <ele>2291.92</ele>
        <time>2019-02-09T10:54:24Z</time>
      </trkpt>
      <trkpt lat="42.7161" lon="1.97096">
        <ele>2293.84</ele>
        <time>2019-02-09T10:54:36Z</time>
      </trkpt>
      <trkpt lat="42.71602" lon="1.97087">
        <ele>2295.77</ele>
        <time>2019-02-09T10:54:48Z</time>
      </trkpt>
      <trkpt lat="42.71595" lon="1.97081">
        <ele>2296.25</ele>
        <time>2019-02-09T10:55:02Z</time>
      </trkpt>
      <trkpt lat="42.71588" lon="1.97078">
        <ele>2299.61</ele>
        <time>2019-02-09T10:55:19Z</time>
      </trkpt>
      <trkpt lat="42.71579" lon="1.97074">
        <ele>2302.01</ele>
        <time>2019-02-09T10:55:42Z</time>
      </trkpt>
      <trkpt lat="42.71571" lon="1.9707">
        <ele>2304.9</ele>
        <time>2019-02-09T10:56:00Z</time>
      </trkpt>
      <trkpt lat="42.71563" lon="1.97069">
        <ele>2306.82</ele>
        <time>2019-02-09T10:56:16Z</time>
      </trkpt>
      <trkpt lat="42.71558" lon="1.97068">
        <ele>2308.26</ele>
        <time>2019-02-09T10:57:02Z</time>
      </trkpt>
      <trkpt lat="42.71551" lon="1.97069">
        <ele>2311.63</ele>
        <time>2019-02-09T10:57:22Z</time>
      </trkpt>
      <trkpt lat="42.71543" lon="1.97066">
        <ele>2313.07</ele>
        <time>2019-02-09T10:57:34Z</time>
      </trkpt>
      <trkpt lat="42.71535" lon="1.9706">
        <ele>2315.95</ele>
        <time>2019-02-09T10:57:54Z</time>
      </trkpt>
      <trkpt lat="42.71527" lon="1.9706">
        <ele>2318.36</ele>
        <time>2019-02-09T10:58:12Z</time>
      </trkpt>
      <trkpt lat="42.71519" lon="1.97066">
        <ele>2320.76</ele>
        <time>2019-02-09T10:58:27Z</time>
      </trkpt>
      <trkpt lat="42.71514" lon="1.97062">
        <ele>2323.16</ele>
        <time>2019-02-09T10:58:48Z</time>
      </trkpt>
      <trkpt lat="42.71508" lon="1.97052">
        <ele>2326.05</ele>
        <time>2019-02-09T10:59:07Z</time>
      </trkpt>
      <trkpt lat="42.71501" lon="1.97054">
        <ele>2329.89</ele>
        <time>2019-02-09T10:59:27Z</time>
      </trkpt>
      <trkpt lat="42.71495" lon="1.97062">
        <ele>2331.33</ele>
        <time>2019-02-09T10:59:48Z</time>
      </trkpt>
      <trkpt lat="42.71489" lon="1.97066">
        <ele>2333.74</ele>
        <time>2019-02-09T11:00:11Z</time>
      </trkpt>
      <trkpt lat="42.71483" lon="1.97073">
        <ele>2335.66</ele>
        <time>2019-02-09T11:00:34Z</time>
      </trkpt>
      <trkpt lat="42.71477" lon="1.97079">
        <ele>2339.02</ele>
        <time>2019-02-09T11:00:54Z</time>
      </trkpt>
      <trkpt lat="42.71472" lon="1.97075">
        <ele>2342.39</ele>
        <time>2019-02-09T11:01:15Z</time>
      </trkpt>
      <trkpt lat="42.71465" lon="1.97074">
        <ele>2346.23</ele>
        <time>2019-02-09T11:01:41Z</time>
      </trkpt>
      <trkpt lat="42.71455" lon="1.97074">
        <ele>2347.68</ele>
        <time>2019-02-09T11:02:01Z</time>
      </trkpt>
      <trkpt lat="42.71449" lon="1.97077">
        <ele>2349.6</ele>
        <time>2019-02-09T11:05:56Z</time>
      </trkpt>
      <trkpt lat="42.71444" lon="1.97075">
        <ele>2353.44</ele>
        <time>2019-02-09T11:06:43Z</time>
      </trkpt>
      <trkpt lat="42.71438" lon="1.97068">
        <ele>2357.29</ele>
        <time>2019-02-09T11:06:59Z</time>
      </trkpt>
      <trkpt lat="42.71432" lon="1.9707">
        <ele>2359.69</ele>
        <time>2019-02-09T11:07:17Z</time>
      </trkpt>
      <trkpt lat="42.71428" lon="1.97075">
        <ele>2363.54</ele>
        <time>2019-02-09T11:07:52Z</time>
      </trkpt>
      <trkpt lat="42.71423" lon="1.97069">
        <ele>2366.9</ele>
        <time>2019-02-09T11:08:14Z</time>
      </trkpt>
      <trkpt lat="42.71416" lon="1.97072">
        <ele>2368.35</ele>
        <time>2019-02-09T11:08:40Z</time>
      </trkpt>
      <trkpt lat="42.71408" lon="1.97072">
        <ele>2370.75</ele>
        <time>2019-02-09T11:08:57Z</time>
      </trkpt>
      <trkpt lat="42.714" lon="1.97076">
        <ele>2373.63</ele>
        <time>2019-02-09T11:09:34Z</time>
      </trkpt>
      <trkpt lat="42.71393" lon="1.9708">
        <ele>2375.07</ele>
        <time>2019-02-09T11:10:12Z</time>
      </trkpt>
      <trkpt lat="42.71389" lon="1.97081">
        <ele>2377.48</ele>
        <time>2019-02-09T11:10:32Z</time>
      </trkpt>
      <trkpt lat="42.71395" lon="1.97076">
        <ele>2374.59</ele>
        <time>2019-02-09T11:13:00Z</time>
      </trkpt>
      <trkpt lat="42.71396" lon="1.97074">
        <ele>2373.63</ele>
        <time>2019-02-09T11:33:40Z</time>
      </trkpt>
      <trkpt lat="42.71394" lon="1.97075">
        <ele>2374.59</ele>
        <time>2019-02-09T11:34:22Z</time>
      </trkpt>
      <trkpt lat="42.71385" lon="1.97079">
        <ele>2373.63</ele>
        <time>2019-02-09T11:34:36Z</time>
      </trkpt>
      <trkpt lat="42.71379" lon="1.97085">
        <ele>2373.15</ele>
        <time>2019-02-09T11:35:15Z</time>
      </trkpt>
      <trkpt lat="42.7137" lon="1.9709">
        <ele>2371.71</ele>
        <time>2019-02-09T11:35:25Z</time>
      </trkpt>
      <trkpt lat="42.71364" lon="1.97099">
        <ele>2370.27</ele>
        <time>2019-02-09T11:35:34Z</time>
      </trkpt>
      <trkpt lat="42.71357" lon="1.97104">
        <ele>2369.79</ele>
        <time>2019-02-09T11:35:50Z</time>
      </trkpt>
      <trkpt lat="42.71349" lon="1.97109">
        <ele>2367.86</ele>
        <time>2019-02-09T11:36:01Z</time>
      </trkpt>
      <trkpt lat="42.71341" lon="1.97115">
        <ele>2367.86</ele>
        <time>2019-02-09T11:36:12Z</time>
      </trkpt>
      <trkpt lat="42.71344" lon="1.97117">
        <ele>2368.35</ele>
        <time>2019-02-09T11:38:50Z</time>
      </trkpt>
      <trkpt lat="42.71352" lon="1.97109">
        <ele>2369.31</ele>
        <time>2019-02-09T11:39:02Z</time>
      </trkpt>
      <trkpt lat="42.71361" lon="1.97103">
        <ele>2370.27</ele>
        <time>2019-02-09T11:39:16Z</time>
      </trkpt>
      <trkpt lat="42.71369" lon="1.97096">
        <ele>2371.71</ele>
        <time>2019-02-09T11:39:29Z</time>
      </trkpt>
      <trkpt lat="42.71375" lon="1.97088">
        <ele>2373.63</ele>
        <time>2019-02-09T11:39:44Z</time>
      </trkpt>
      <trkpt lat="42.71384" lon="1.97082">
        <ele>2375.07</ele>
        <time>2019-02-09T11:39:59Z</time>
      </trkpt>
      <trkpt lat="42.71392" lon="1.97077">
        <ele>2374.59</ele>
        <time>2019-02-09T11:40:12Z</time>
      </trkpt>
      <trkpt lat="42.7139" lon="1.97075">
        <ele>2374.59</ele>
        <time>2019-02-09T11:41:43Z</time>
      </trkpt>
      <trkpt lat="42.71389" lon="1.97075">
        <ele>2374.59</ele>
        <time>2019-02-09T11:42:02Z</time>
      </trkpt>
      <trkpt lat="42.71395" lon="1.97075">
        <ele>2373.15</ele>
        <time>2019-02-09T11:42:33Z</time>
      </trkpt>
      <trkpt lat="42.71392" lon="1.9708">
        <ele>2373.15</ele>
        <time>2019-02-09T11:51:39Z</time>
      </trkpt>
      <trkpt lat="42.71391" lon="1.9708">
        <ele>2371.23</ele>
        <time>2019-02-09T12:17:51Z</time>
      </trkpt>
      <trkpt lat="42.71392" lon="1.97076">
        <ele>2374.11</ele>
        <time>2019-02-09T13:00:14Z</time>
      </trkpt>
      <trkpt lat="42.71393" lon="1.97078">
        <ele>2374.11</ele>
        <time>2019-02-09T13:01:11Z</time>
      </trkpt>
      <trkpt lat="42.71398" lon="1.97077">
        <ele>2373.15</ele>
        <time>2019-02-09T13:01:37Z</time>
      </trkpt>
      <trkpt lat="42.71406" lon="1.97074">
        <ele>2371.23</ele>
        <time>2019-02-09T13:01:50Z</time>
      </trkpt>
      <trkpt lat="42.71414" lon="1.9707">
        <ele>2368.35</ele>
        <time>2019-02-09T13:02:01Z</time>
      </trkpt>
      <trkpt lat="42.71424" lon="1.97074">
        <ele>2364.5</ele>
        <time>2019-02-09T13:02:14Z</time>
      </trkpt>
      <trkpt lat="42.71433" lon="1.97075">
        <ele>2360.17</ele>
        <time>2019-02-09T13:02:27Z</time>
      </trkpt>
      <trkpt lat="42.71441" lon="1.9707">
        <ele>2355.37</ele>
        <time>2019-02-09T13:02:41Z</time>
      </trkpt>
      <trkpt lat="42.71448" lon="1.97077">
        <ele>2352.48</ele>
        <time>2019-02-09T13:02:55Z</time>
      </trkpt>
      <trkpt lat="42.71456" lon="1.97078">
        <ele>2349.6</ele>
        <time>2019-02-09T13:03:05Z</time>
      </trkpt>
      <trkpt lat="42.71465" lon="1.97076">
        <ele>2346.23</ele>
        <time>2019-02-09T13:03:20Z</time>
      </trkpt>
      <trkpt lat="42.71474" lon="1.97079">
        <ele>2341.43</ele>
        <time>2019-02-09T13:03:34Z</time>
      </trkpt>
      <trkpt lat="42.71482" lon="1.97076">
        <ele>2337.58</ele>
        <time>2019-02-09T13:03:49Z</time>
      </trkpt>
      <trkpt lat="42.71487" lon="1.97076">
        <ele>2335.18</ele>
        <time>2019-02-09T13:04:03Z</time>
      </trkpt>
      <trkpt lat="42.71494" lon="1.97079">
        <ele>2331.33</ele>
        <time>2019-02-09T13:04:17Z</time>
      </trkpt>
      <trkpt lat="42.71502" lon="1.97083">
        <ele>2327.49</ele>
        <time>2019-02-09T13:04:31Z</time>
      </trkpt>
      <trkpt lat="42.71508" lon="1.97077">
        <ele>2324.12</ele>
        <time>2019-02-09T13:04:45Z</time>
      </trkpt>
      <trkpt lat="42.71517" lon="1.97075">
        <ele>2321.24</ele>
        <time>2019-02-09T13:05:01Z</time>
      </trkpt>
      <trkpt lat="42.71519" lon="1.9708">
        <ele>2320.76</ele>
        <time>2019-02-09T13:06:03Z</time>
      </trkpt>
      <trkpt lat="42.71526" lon="1.97082">
        <ele>2317.4</ele>
        <time>2019-02-09T13:06:19Z</time>
      </trkpt>
      <trkpt lat="42.71535" lon="1.97085">
        <ele>2314.51</ele>
        <time>2019-02-09T13:06:33Z</time>
      </trkpt>
      <trkpt lat="42.71544" lon="1.97087">
        <ele>2311.15</ele>
        <time>2019-02-09T13:07:00Z</time>
      </trkpt>
      <trkpt lat="42.71552" lon="1.97087">
        <ele>2309.22</ele>
        <time>2019-02-09T13:07:17Z</time>
      </trkpt>
      <trkpt lat="42.7156" lon="1.97091">
        <ele>2305.86</ele>
        <time>2019-02-09T13:07:42Z</time>
      </trkpt>
      <trkpt lat="42.71568" lon="1.97092">
        <ele>2303.94</ele>
        <time>2019-02-09T13:08:01Z</time>
      </trkpt>
      <trkpt lat="42.71576" lon="1.97096">
        <ele>2301.05</ele>
        <time>2019-02-09T13:08:14Z</time>
      </trkpt>
      <trkpt lat="42.71584" lon="1.97101">
        <ele>2298.17</ele>
        <time>2019-02-09T13:08:31Z</time>
      </trkpt>
      <trkpt lat="42.71592" lon="1.97106">
        <ele>2296.25</ele>
        <time>2019-02-09T13:08:42Z</time>
      </trkpt>
      <trkpt lat="42.716" lon="1.97111">
        <ele>2295.77</ele>
        <time>2019-02-09T13:08:53Z</time>
      </trkpt>
      <trkpt lat="42.71608" lon="1.97116">
        <ele>2294.8</ele>
        <time>2019-02-09T13:09:07Z</time>
      </trkpt>
      <trkpt lat="42.71616" lon="1.97121">
        <ele>2293.84</ele>
        <time>2019-02-09T13:09:20Z</time>
      </trkpt>
      <trkpt lat="42.71624" lon="1.97125">
        <ele>2294.32</ele>
        <time>2019-02-09T13:09:34Z</time>
      </trkpt>
      <trkpt lat="42.71633" lon="1.97129">
        <ele>2293.36</ele>
        <time>2019-02-09T13:09:46Z</time>
      </trkpt>
      <trkpt lat="42.71642" lon="1.97133">
        <ele>2291.92</ele>
        <time>2019-02-09T13:09:58Z</time>
      </trkpt>
      <trkpt lat="42.7165" lon="1.97138">
        <ele>2290.48</ele>
        <time>2019-02-09T13:10:08Z</time>
      </trkpt>
      <trkpt lat="42.71659" lon="1.97142">
        <ele>2290.48</ele>
        <time>2019-02-09T13:10:19Z</time>
      </trkpt>
      <trkpt lat="42.71667" lon="1.97147">
        <ele>2289.04</ele>
        <time>2019-02-09T13:10:38Z</time>
      </trkpt>
      <trkpt lat="42.71673" lon="1.97156">
        <ele>2287.11</ele>
        <time>2019-02-09T13:10:51Z</time>
      </trkpt>
      <trkpt lat="42.71679" lon="1.97163">
        <ele>2285.19</ele>
        <time>2019-02-09T13:11:13Z</time>
      </trkpt>
      <trkpt lat="42.71685" lon="1.97171">
        <ele>2282.31</ele>
        <time>2019-02-09T13:11:27Z</time>
      </trkpt>
      <trkpt lat="42.71692" lon="1.97179">
        <ele>2280.87</ele>
        <time>2019-02-09T13:11:39Z</time>
      </trkpt>
      <trkpt lat="42.717" lon="1.97187">
        <ele>2279.42</ele>
        <time>2019-02-09T13:11:50Z</time>
      </trkpt>
      <trkpt lat="42.71708" lon="1.97193">
        <ele>2277.98</ele>
        <time>2019-02-09T13:12:02Z</time>
      </trkpt>
      <trkpt lat="42.71716" lon="1.97199">
        <ele>2275.1</ele>
        <time>2019-02-09T13:12:15Z</time>
      </trkpt>
      <trkpt lat="42.71721" lon="1.97208">
        <ele>2273.17</ele>
        <time>2019-02-09T13:12:59Z</time>
      </trkpt>
      <trkpt lat="42.71727" lon="1.97216">
        <ele>2269.81</ele>
        <time>2019-02-09T13:13:14Z</time>
      </trkpt>
      <trkpt lat="42.71732" lon="1.97224">
        <ele>2265.96</ele>
        <time>2019-02-09T13:13:29Z</time>
      </trkpt>
      <trkpt lat="42.71737" lon="1.97233">
        <ele>2263.08</ele>
        <time>2019-02-09T13:13:43Z</time>
      </trkpt>
      <trkpt lat="42.71744" lon="1.97243">
        <ele>2260.2</ele>
        <time>2019-02-09T13:13:56Z</time>
      </trkpt>
      <trkpt lat="42.71749" lon="1.97252">
        <ele>2257.31</ele>
        <time>2019-02-09T13:14:09Z</time>
      </trkpt>
      <trkpt lat="42.71755" lon="1.9726">
        <ele>2254.43</ele>
        <time>2019-02-09T13:14:24Z</time>
      </trkpt>
      <trkpt lat="42.71761" lon="1.97268">
        <ele>2252.99</ele>
        <time>2019-02-09T13:14:38Z</time>
      </trkpt>
      <trkpt lat="42.71769" lon="1.97275">
        <ele>2252.03</ele>
        <time>2019-02-09T13:14:53Z</time>
      </trkpt>
      <trkpt lat="42.71773" lon="1.97284">
        <ele>2248.66</ele>
        <time>2019-02-09T13:15:04Z</time>
      </trkpt>
      <trkpt lat="42.7178" lon="1.97293">
        <ele>2247.22</ele>
        <time>2019-02-09T13:15:14Z</time>
      </trkpt>
      <trkpt lat="42.71785" lon="1.97302">
        <ele>2246.26</ele>
        <time>2019-02-09T13:15:26Z</time>
      </trkpt>
      <trkpt lat="42.71789" lon="1.97309">
        <ele>2245.78</ele>
        <time>2019-02-09T13:15:59Z</time>
      </trkpt>
      <trkpt lat="42.71793" lon="1.97315">
        <ele>2243.37</ele>
        <time>2019-02-09T13:16:34Z</time>
      </trkpt>
      <trkpt lat="42.71798" lon="1.97324">
        <ele>2241.93</ele>
        <time>2019-02-09T13:16:46Z</time>
      </trkpt>
      <trkpt lat="42.71804" lon="1.97334">
        <ele>2239.05</ele>
        <time>2019-02-09T13:17:01Z</time>
      </trkpt>
      <trkpt lat="42.71809" lon="1.97344">
        <ele>2236.16</ele>
        <time>2019-02-09T13:17:15Z</time>
      </trkpt>
      <trkpt lat="42.71814" lon="1.97355">
        <ele>2232.8</ele>
        <time>2019-02-09T13:17:30Z</time>
      </trkpt>
      <trkpt lat="42.7182" lon="1.97365">
        <ele>2229.43</ele>
        <time>2019-02-09T13:17:44Z</time>
      </trkpt>
      <trkpt lat="42.71822" lon="1.97377">
        <ele>2227.03</ele>
        <time>2019-02-09T13:17:58Z</time>
      </trkpt>
      <trkpt lat="42.71826" lon="1.97387">
        <ele>2223.67</ele>
        <time>2019-02-09T13:18:14Z</time>
      </trkpt>
      <trkpt lat="42.71831" lon="1.97397">
        <ele>2219.34</ele>
        <time>2019-02-09T13:18:29Z</time>
      </trkpt>
      <trkpt lat="42.71837" lon="1.97406">
        <ele>2215.98</ele>
        <time>2019-02-09T13:18:44Z</time>
      </trkpt>
      <trkpt lat="42.71841" lon="1.97416">
        <ele>2214.53</ele>
        <time>2019-02-09T13:19:21Z</time>
      </trkpt>
      <trkpt lat="42.71846" lon="1.97425">
        <ele>2212.61</ele>
        <time>2019-02-09T13:19:33Z</time>
      </trkpt>
      <trkpt lat="42.71852" lon="1.97435">
        <ele>2210.21</ele>
        <time>2019-02-09T13:19:46Z</time>
      </trkpt>
      <trkpt lat="42.71857" lon="1.97444">
        <ele>2207.81</ele>
        <time>2019-02-09T13:19:59Z</time>
      </trkpt>
      <trkpt lat="42.71861" lon="1.97454">
        <ele>2205.4</ele>
        <time>2019-02-09T13:20:15Z</time>
      </trkpt>
      <trkpt lat="42.71866" lon="1.97463">
        <ele>2203</ele>
        <time>2019-02-09T13:20:36Z</time>
      </trkpt>
      <trkpt lat="42.71871" lon="1.97474">
        <ele>2200.59</ele>
        <time>2019-02-09T13:20:48Z</time>
      </trkpt>
      <trkpt lat="42.71877" lon="1.97483">
        <ele>2198.67</ele>
        <time>2019-02-09T13:21:01Z</time>
      </trkpt>
      <trkpt lat="42.71882" lon="1.97493">
        <ele>2196.27</ele>
        <time>2019-02-09T13:21:11Z</time>
      </trkpt>
      <trkpt lat="42.71887" lon="1.97503">
        <ele>2194.83</ele>
        <time>2019-02-09T13:21:21Z</time>
      </trkpt>
      <trkpt lat="42.71893" lon="1.97515">
        <ele>2193.87</ele>
        <time>2019-02-09T13:21:32Z</time>
      </trkpt>
      <trkpt lat="42.71897" lon="1.97523">
        <ele>2192.42</ele>
        <time>2019-02-09T13:22:04Z</time>
      </trkpt>
      <trkpt lat="42.71903" lon="1.97521">
        <ele>2190.98</ele>
        <time>2019-02-09T13:23:28Z</time>
      </trkpt>
      <trkpt lat="42.719" lon="1.97521">
        <ele>2191.46</ele>
        <time>2019-02-09T13:26:55Z</time>
      </trkpt>
      <trkpt lat="42.71901" lon="1.97522">
        <ele>2190.5</ele>
        <time>2019-02-09T13:29:23Z</time>
      </trkpt>
      <trkpt lat="42.71903" lon="1.97529">
        <ele>2189.54</ele>
        <time>2019-02-09T13:30:36Z</time>
      </trkpt>
      <trkpt lat="42.7191" lon="1.97537">
        <ele>2187.14</ele>
        <time>2019-02-09T13:30:48Z</time>
      </trkpt>
      <trkpt lat="42.71915" lon="1.97546">
        <ele>2187.62</ele>
        <time>2019-02-09T13:31:00Z</time>
      </trkpt>
      <trkpt lat="42.71919" lon="1.97554">
        <ele>2187.62</ele>
        <time>2019-02-09T13:31:15Z</time>
      </trkpt>
      <trkpt lat="42.71922" lon="1.97564">
        <ele>2190.5</ele>
        <time>2019-02-09T13:31:35Z</time>
      </trkpt>
      <trkpt lat="42.71928" lon="1.9757">
        <ele>2192.9</ele>
        <time>2019-02-09T13:31:49Z</time>
      </trkpt>
      <trkpt lat="42.71936" lon="1.97573">
        <ele>2194.83</ele>
        <time>2019-02-09T13:32:08Z</time>
      </trkpt>
      <trkpt lat="42.71944" lon="1.9758">
        <ele>2198.19</ele>
        <time>2019-02-09T13:32:28Z</time>
      </trkpt>
      <trkpt lat="42.71951" lon="1.97589">
        <ele>2197.23</ele>
        <time>2019-02-09T13:32:41Z</time>
      </trkpt>
      <trkpt lat="42.71956" lon="1.97597">
        <ele>2195.31</ele>
        <time>2019-02-09T13:33:00Z</time>
      </trkpt>
      <trkpt lat="42.71955" lon="1.97604">
        <ele>2193.87</ele>
        <time>2019-02-09T13:33:28Z</time>
      </trkpt>
      <trkpt lat="42.71959" lon="1.97615">
        <ele>2193.87</ele>
        <time>2019-02-09T13:33:41Z</time>
      </trkpt>
      <trkpt lat="42.71964" lon="1.97626">
        <ele>2193.39</ele>
        <time>2019-02-09T13:33:52Z</time>
      </trkpt>
      <trkpt lat="42.71969" lon="1.97637">
        <ele>2193.39</ele>
        <time>2019-02-09T13:34:03Z</time>
      </trkpt>
      <trkpt lat="42.71973" lon="1.97647">
        <ele>2192.42</ele>
        <time>2019-02-09T13:34:14Z</time>
      </trkpt>
      <trkpt lat="42.71979" lon="1.97658">
        <ele>2191.46</ele>
        <time>2019-02-09T13:34:24Z</time>
      </trkpt>
      <trkpt lat="42.71987" lon="1.97668">
        <ele>2191.46</ele>
        <time>2019-02-09T13:34:34Z</time>
      </trkpt>
      <trkpt lat="42.71995" lon="1.97678">
        <ele>2192.42</ele>
        <time>2019-02-09T13:34:46Z</time>
      </trkpt>
      <trkpt lat="42.72007" lon="1.97689">
        <ele>2192.42</ele>
        <time>2019-02-09T13:35:45Z</time>
      </trkpt>
      <trkpt lat="42.7201" lon="1.97693">
        <ele>2190.5</ele>
        <time>2019-02-09T13:36:15Z</time>
      </trkpt>
      <trkpt lat="42.72014" lon="1.97696">
        <ele>2188.1</ele>
        <time>2019-02-09T13:36:27Z</time>
      </trkpt>
      <trkpt lat="42.7202" lon="1.97701">
        <ele>2184.73</ele>
        <time>2019-02-09T13:36:40Z</time>
      </trkpt>
      <trkpt lat="42.72024" lon="1.97706">
        <ele>2183.29</ele>
        <time>2019-02-09T13:36:52Z</time>
      </trkpt>
      <trkpt lat="42.72031" lon="1.97713">
        <ele>2180.41</ele>
        <time>2019-02-09T13:37:05Z</time>
      </trkpt>
      <trkpt lat="42.72038" lon="1.97721">
        <ele>2178.48</ele>
        <time>2019-02-09T13:37:16Z</time>
      </trkpt>
      <trkpt lat="42.72045" lon="1.97728">
        <ele>2177.52</ele>
        <time>2019-02-09T13:37:27Z</time>
      </trkpt>
      <trkpt lat="42.72052" lon="1.97733">
        <ele>2176.08</ele>
        <time>2019-02-09T13:37:49Z</time>
      </trkpt>
      <trkpt lat="42.7206" lon="1.97739">
        <ele>2175.12</ele>
        <time>2019-02-09T13:38:01Z</time>
      </trkpt>
      <trkpt lat="42.72069" lon="1.97741">
        <ele>2172.72</ele>
        <time>2019-02-09T13:38:11Z</time>
      </trkpt>
      <trkpt lat="42.72078" lon="1.97743">
        <ele>2166.47</ele>
        <time>2019-02-09T13:38:25Z</time>
      </trkpt>
      <trkpt lat="42.72084" lon="1.97752">
        <ele>2167.43</ele>
        <time>2019-02-09T13:38:44Z</time>
      </trkpt>
      <trkpt lat="42.72091" lon="1.97759">
        <ele>2165.99</ele>
        <time>2019-02-09T13:38:58Z</time>
      </trkpt>
      <trkpt lat="42.72098" lon="1.97767">
        <ele>2162.62</ele>
        <time>2019-02-09T13:39:14Z</time>
      </trkpt>
      <trkpt lat="42.72106" lon="1.97775">
        <ele>2159.74</ele>
        <time>2019-02-09T13:39:27Z</time>
      </trkpt>
      <trkpt lat="42.72114" lon="1.97781">
        <ele>2156.37</ele>
        <time>2019-02-09T13:39:40Z</time>
      </trkpt>
      <trkpt lat="42.7212" lon="1.9779">
        <ele>2153.49</ele>
        <time>2019-02-09T13:39:52Z</time>
      </trkpt>
      <trkpt lat="42.72127" lon="1.97798">
        <ele>2150.61</ele>
        <time>2019-02-09T13:40:04Z</time>
      </trkpt>
      <trkpt lat="42.72135" lon="1.97804">
        <ele>2148.2</ele>
        <time>2019-02-09T13:40:18Z</time>
      </trkpt>
      <trkpt lat="42.72142" lon="1.97812">
        <ele>2146.28</ele>
        <time>2019-02-09T13:40:33Z</time>
      </trkpt>
      <trkpt lat="42.72149" lon="1.97818">
        <ele>2143.88</ele>
        <time>2019-02-09T13:40:48Z</time>
      </trkpt>
      <trkpt lat="42.72155" lon="1.97826">
        <ele>2141.95</ele>
        <time>2019-02-09T13:41:02Z</time>
      </trkpt>
      <trkpt lat="42.72157" lon="1.97838">
        <ele>2137.63</ele>
        <time>2019-02-09T13:41:17Z</time>
      </trkpt>
      <trkpt lat="42.72164" lon="1.97846">
        <ele>2132.34</ele>
        <time>2019-02-09T13:41:35Z</time>
      </trkpt>
      <trkpt lat="42.72172" lon="1.97853">
        <ele>2129.46</ele>
        <time>2019-02-09T13:41:51Z</time>
      </trkpt>
      <trkpt lat="42.72178" lon="1.97861">
        <ele>2126.57</ele>
        <time>2019-02-09T13:42:04Z</time>
      </trkpt>
      <trkpt lat="42.72185" lon="1.97864">
        <ele>2125.13</ele>
        <time>2019-02-09T13:42:17Z</time>
      </trkpt>
      <trkpt lat="42.72192" lon="1.97873">
        <ele>2123.21</ele>
        <time>2019-02-09T13:42:31Z</time>
      </trkpt>
      <trkpt lat="42.72199" lon="1.97882">
        <ele>2121.77</ele>
        <time>2019-02-09T13:42:43Z</time>
      </trkpt>
      <trkpt lat="42.72207" lon="1.97888">
        <ele>2117.92</ele>
        <time>2019-02-09T13:42:54Z</time>
      </trkpt>
      <trkpt lat="42.72209" lon="1.979">
        <ele>2115.52</ele>
        <time>2019-02-09T13:43:05Z</time>
      </trkpt>
      <trkpt lat="42.72216" lon="1.97907">
        <ele>2114.08</ele>
        <time>2019-02-09T13:43:18Z</time>
      </trkpt>
      <trkpt lat="42.72222" lon="1.97918">
        <ele>2110.71</ele>
        <time>2019-02-09T13:43:32Z</time>
      </trkpt>
      <trkpt lat="42.72228" lon="1.97928">
        <ele>2107.83</ele>
        <time>2019-02-09T13:43:43Z</time>
      </trkpt>
      <trkpt lat="42.72232" lon="1.97939">
        <ele>2105.42</ele>
        <time>2019-02-09T13:43:56Z</time>
      </trkpt>
      <trkpt lat="42.72236" lon="1.97947">
        <ele>2103.5</ele>
        <time>2019-02-09T13:44:11Z</time>
      </trkpt>
      <trkpt lat="42.72241" lon="1.97957">
        <ele>2100.62</ele>
        <time>2019-02-09T13:44:31Z</time>
      </trkpt>
      <trkpt lat="42.72246" lon="1.97966">
        <ele>2097.25</ele>
        <time>2019-02-09T13:44:46Z</time>
      </trkpt>
      <trkpt lat="42.7225" lon="1.97976">
        <ele>2096.29</ele>
        <time>2019-02-09T13:44:58Z</time>
      </trkpt>
      <trkpt lat="42.72254" lon="1.97987">
        <ele>2093.89</ele>
        <time>2019-02-09T13:45:10Z</time>
      </trkpt>
      <trkpt lat="42.72258" lon="1.97999">
        <ele>2091</ele>
        <time>2019-02-09T13:45:22Z</time>
      </trkpt>
      <trkpt lat="42.72261" lon="1.98009">
        <ele>2089.56</ele>
        <time>2019-02-09T13:45:33Z</time>
      </trkpt>
      <trkpt lat="42.72262" lon="1.9802">
        <ele>2087.64</ele>
        <time>2019-02-09T13:45:45Z</time>
      </trkpt>
      <trkpt lat="42.72263" lon="1.98032">
        <ele>2085.24</ele>
        <time>2019-02-09T13:45:58Z</time>
      </trkpt>
      <trkpt lat="42.72262" lon="1.98044">
        <ele>2083.79</ele>
        <time>2019-02-09T13:46:11Z</time>
      </trkpt>
      <trkpt lat="42.7226" lon="1.98057">
        <ele>2080.43</ele>
        <time>2019-02-09T13:46:30Z</time>
      </trkpt>
      <trkpt lat="42.72259" lon="1.98069">
        <ele>2078.51</ele>
        <time>2019-02-09T13:46:44Z</time>
      </trkpt>
      <trkpt lat="42.72259" lon="1.98082">
        <ele>2075.62</ele>
        <time>2019-02-09T13:46:57Z</time>
      </trkpt>
      <trkpt lat="42.7226" lon="1.98094">
        <ele>2072.74</ele>
        <time>2019-02-09T13:47:10Z</time>
      </trkpt>
      <trkpt lat="42.72261" lon="1.98106">
        <ele>2071.3</ele>
        <time>2019-02-09T13:47:22Z</time>
      </trkpt>
      <trkpt lat="42.72263" lon="1.98118">
        <ele>2067.93</ele>
        <time>2019-02-09T13:47:35Z</time>
      </trkpt>
      <trkpt lat="42.72264" lon="1.9813">
        <ele>2065.53</ele>
        <time>2019-02-09T13:47:48Z</time>
      </trkpt>
      <trkpt lat="42.72266" lon="1.98141">
        <ele>2063.13</ele>
        <time>2019-02-09T13:48:02Z</time>
      </trkpt>
      <trkpt lat="42.72268" lon="1.98151">
        <ele>2060.24</ele>
        <time>2019-02-09T13:48:17Z</time>
      </trkpt>
      <trkpt lat="42.72273" lon="1.98164">
        <ele>2056.88</ele>
        <time>2019-02-09T13:48:32Z</time>
      </trkpt>
      <trkpt lat="42.72276" lon="1.98175">
        <ele>2053.51</ele>
        <time>2019-02-09T13:48:46Z</time>
      </trkpt>
      <trkpt lat="42.72281" lon="1.98184">
        <ele>2051.11</ele>
        <time>2019-02-09T13:48:59Z</time>
      </trkpt>
      <trkpt lat="42.72289" lon="1.98189">
        <ele>2048.71</ele>
        <time>2019-02-09T13:49:14Z</time>
      </trkpt>
      <trkpt lat="42.72296" lon="1.98198">
        <ele>2047.26</ele>
        <time>2019-02-09T13:49:26Z</time>
      </trkpt>
      <trkpt lat="42.72304" lon="1.98204">
        <ele>2045.34</ele>
        <time>2019-02-09T13:49:39Z</time>
      </trkpt>
      <trkpt lat="42.72312" lon="1.98205">
        <ele>2042.94</ele>
        <time>2019-02-09T13:49:53Z</time>
      </trkpt>
      <trkpt lat="42.7232" lon="1.98211">
        <ele>2040.05</ele>
        <time>2019-02-09T13:50:07Z</time>
      </trkpt>
      <trkpt lat="42.72329" lon="1.98216">
        <ele>2038.13</ele>
        <time>2019-02-09T13:50:20Z</time>
      </trkpt>
      <trkpt lat="42.72337" lon="1.9822">
        <ele>2036.21</ele>
        <time>2019-02-09T13:50:33Z</time>
      </trkpt>
      <trkpt lat="42.72345" lon="1.98224">
        <ele>2034.29</ele>
        <time>2019-02-09T13:50:45Z</time>
      </trkpt>
      <trkpt lat="42.72353" lon="1.9823">
        <ele>2032.84</ele>
        <time>2019-02-09T13:50:58Z</time>
      </trkpt>
      <trkpt lat="42.72361" lon="1.98235">
        <ele>2031.4</ele>
        <time>2019-02-09T13:51:09Z</time>
      </trkpt>
      <trkpt lat="42.72371" lon="1.98238">
        <ele>2029.96</ele>
        <time>2019-02-09T13:51:20Z</time>
      </trkpt>
      <trkpt lat="42.7238" lon="1.98243">
        <ele>2029.48</ele>
        <time>2019-02-09T13:51:31Z</time>
      </trkpt>
      <trkpt lat="42.72388" lon="1.98248">
        <ele>2028.04</ele>
        <time>2019-02-09T13:51:42Z</time>
      </trkpt>
      <trkpt lat="42.72397" lon="1.98253">
        <ele>2028.04</ele>
        <time>2019-02-09T13:51:53Z</time>
      </trkpt>
      <trkpt lat="42.72406" lon="1.98259">
        <ele>2027.08</ele>
        <time>2019-02-09T13:52:03Z</time>
      </trkpt>
      <trkpt lat="42.72413" lon="1.98265">
        <ele>2025.64</ele>
        <time>2019-02-09T13:52:13Z</time>
      </trkpt>
      <trkpt lat="42.72422" lon="1.9827">
        <ele>2025.15</ele>
        <time>2019-02-09T13:52:23Z</time>
      </trkpt>
      <trkpt lat="42.72431" lon="1.98274">
        <ele>2024.67</ele>
        <time>2019-02-09T13:52:33Z</time>
      </trkpt>
      <trkpt lat="42.7244" lon="1.98277">
        <ele>2023.71</ele>
        <time>2019-02-09T13:52:43Z</time>
      </trkpt>
      <trkpt lat="42.72448" lon="1.98279">
        <ele>2023.71</ele>
        <time>2019-02-09T13:52:53Z</time>
      </trkpt>
      <trkpt lat="42.72458" lon="1.98283">
        <ele>2022.27</ele>
        <time>2019-02-09T13:53:04Z</time>
      </trkpt>
      <trkpt lat="42.72467" lon="1.98287">
        <ele>2021.31</ele>
        <time>2019-02-09T13:53:14Z</time>
      </trkpt>
      <trkpt lat="42.72475" lon="1.98291">
        <ele>2020.83</ele>
        <time>2019-02-09T13:53:24Z</time>
      </trkpt>
      <trkpt lat="42.72484" lon="1.98295">
        <ele>2020.83</ele>
        <time>2019-02-09T13:53:34Z</time>
      </trkpt>
      <trkpt lat="42.72492" lon="1.98299">
        <ele>2019.87</ele>
        <time>2019-02-09T13:53:44Z</time>
      </trkpt>
      <trkpt lat="42.72502" lon="1.98302">
        <ele>2018.43</ele>
        <time>2019-02-09T13:53:54Z</time>
      </trkpt>
      <trkpt lat="42.7251" lon="1.98307">
        <ele>2017.94</ele>
        <time>2019-02-09T13:54:04Z</time>
      </trkpt>
      <trkpt lat="42.72522" lon="1.98313">
        <ele>2017.94</ele>
        <time>2019-02-09T13:54:13Z</time>
      </trkpt>
      <trkpt lat="42.72524" lon="1.98318">
        <ele>2017.46</ele>
        <time>2019-02-09T13:55:01Z</time>
      </trkpt>
      <trkpt lat="42.72531" lon="1.98322">
        <ele>2016.98</ele>
        <time>2019-02-09T13:56:06Z</time>
      </trkpt>
      <trkpt lat="42.72538" lon="1.98326">
        <ele>2016.5</ele>
        <time>2019-02-09T13:56:17Z</time>
      </trkpt>
      <trkpt lat="42.72549" lon="1.98332">
        <ele>2015.54</ele>
        <time>2019-02-09T13:56:28Z</time>
      </trkpt>
      <trkpt lat="42.72557" lon="1.98338">
        <ele>2016.02</ele>
        <time>2019-02-09T13:56:38Z</time>
      </trkpt>
      <trkpt lat="42.72564" lon="1.98342">
        <ele>2015.06</ele>
        <time>2019-02-09T13:56:48Z</time>
      </trkpt>
      <trkpt lat="42.72571" lon="1.98347">
        <ele>2014.1</ele>
        <time>2019-02-09T13:56:58Z</time>
      </trkpt>
      <trkpt lat="42.72579" lon="1.98349">
        <ele>2013.62</ele>
        <time>2019-02-09T13:57:09Z</time>
      </trkpt>
      <trkpt lat="42.72586" lon="1.98353">
        <ele>2012.66</ele>
        <time>2019-02-09T13:57:21Z</time>
      </trkpt>
      <trkpt lat="42.72597" lon="1.98358">
        <ele>2012.18</ele>
        <time>2019-02-09T13:57:32Z</time>
      </trkpt>
      <trkpt lat="42.72606" lon="1.98361">
        <ele>2011.22</ele>
        <time>2019-02-09T13:57:42Z</time>
      </trkpt>
      <trkpt lat="42.72613" lon="1.98363">
        <ele>2010.25</ele>
        <time>2019-02-09T13:57:52Z</time>
      </trkpt>
      <trkpt lat="42.72623" lon="1.98365">
        <ele>2010.25</ele>
        <time>2019-02-09T13:58:07Z</time>
      </trkpt>
      <trkpt lat="42.72633" lon="1.98369">
        <ele>2008.81</ele>
        <time>2019-02-09T13:58:19Z</time>
      </trkpt>
      <trkpt lat="42.7264" lon="1.98373">
        <ele>2008.33</ele>
        <time>2019-02-09T13:58:29Z</time>
      </trkpt>
      <trkpt lat="42.72648" lon="1.98376">
        <ele>2004.97</ele>
        <time>2019-02-09T13:58:40Z</time>
      </trkpt>
      <trkpt lat="42.72654" lon="1.98377">
        <ele>2005.93</ele>
        <time>2019-02-09T13:58:58Z</time>
      </trkpt>
      <trkpt lat="42.72665" lon="1.9838">
        <ele>2003.52</ele>
        <time>2019-02-09T13:59:08Z</time>
      </trkpt>
      <trkpt lat="42.72674" lon="1.98382">
        <ele>2002.56</ele>
        <time>2019-02-09T13:59:18Z</time>
      </trkpt>
      <trkpt lat="42.72683" lon="1.98384">
        <ele>1999.2</ele>
        <time>2019-02-09T13:59:27Z</time>
      </trkpt>
      <trkpt lat="42.72692" lon="1.98386">
        <ele>1999.68</ele>
        <time>2019-02-09T13:59:37Z</time>
      </trkpt>
      <trkpt lat="42.72703" lon="1.98391">
        <ele>1998.24</ele>
        <time>2019-02-09T13:59:49Z</time>
      </trkpt>
      <trkpt lat="42.72712" lon="1.98392">
        <ele>1997.28</ele>
        <time>2019-02-09T13:59:59Z</time>
      </trkpt>
      <trkpt lat="42.7272" lon="1.98394">
        <ele>1995.83</ele>
        <time>2019-02-09T14:00:10Z</time>
      </trkpt>
      <trkpt lat="42.72729" lon="1.98397">
        <ele>1995.35</ele>
        <time>2019-02-09T14:00:21Z</time>
      </trkpt>
      <trkpt lat="42.72737" lon="1.98396">
        <ele>1993.91</ele>
        <time>2019-02-09T14:00:32Z</time>
      </trkpt>
      <trkpt lat="42.72747" lon="1.984">
        <ele>1992.95</ele>
        <time>2019-02-09T14:00:44Z</time>
      </trkpt>
      <trkpt lat="42.72756" lon="1.98401">
        <ele>1992.47</ele>
        <time>2019-02-09T14:00:56Z</time>
      </trkpt>
      <trkpt lat="42.72765" lon="1.98403">
        <ele>1991.03</ele>
        <time>2019-02-09T14:01:07Z</time>
      </trkpt>
      <trkpt lat="42.72773" lon="1.98405">
        <ele>1990.55</ele>
        <time>2019-02-09T14:01:18Z</time>
      </trkpt>
      <trkpt lat="42.72783" lon="1.98407">
        <ele>1988.62</ele>
        <time>2019-02-09T14:01:29Z</time>
      </trkpt>
      <trkpt lat="42.72791" lon="1.98408">
        <ele>1988.14</ele>
        <time>2019-02-09T14:01:40Z</time>
      </trkpt>
      <trkpt lat="42.72799" lon="1.98411">
        <ele>1987.18</ele>
        <time>2019-02-09T14:01:50Z</time>
      </trkpt>
      <trkpt lat="42.72808" lon="1.98413">
        <ele>1986.22</ele>
        <time>2019-02-09T14:02:00Z</time>
      </trkpt>
      <trkpt lat="42.72818" lon="1.98413">
        <ele>1984.3</ele>
        <time>2019-02-09T14:02:11Z</time>
      </trkpt>
      <trkpt lat="42.72827" lon="1.98416">
        <ele>1983.82</ele>
        <time>2019-02-09T14:02:21Z</time>
      </trkpt>
      <trkpt lat="42.72836" lon="1.9842">
        <ele>1982.86</ele>
        <time>2019-02-09T14:02:31Z</time>
      </trkpt>
      <trkpt lat="42.72846" lon="1.98424">
        <ele>1981.9</ele>
        <time>2019-02-09T14:02:42Z</time>
      </trkpt>
      <trkpt lat="42.72853" lon="1.98421">
        <ele>1981.41</ele>
        <time>2019-02-09T14:02:58Z</time>
      </trkpt>
      <trkpt lat="42.7286" lon="1.98422">
        <ele>1981.41</ele>
        <time>2019-02-09T14:03:10Z</time>
      </trkpt>
      <trkpt lat="42.72866" lon="1.98414">
        <ele>1979.01</ele>
        <time>2019-02-09T14:03:21Z</time>
      </trkpt>
      <trkpt lat="42.72873" lon="1.98409">
        <ele>1977.57</ele>
        <time>2019-02-09T14:03:35Z</time>
      </trkpt>
      <trkpt lat="42.7288" lon="1.98401">
        <ele>1976.13</ele>
        <time>2019-02-09T14:03:44Z</time>
      </trkpt>
      <trkpt lat="42.72887" lon="1.98391">
        <ele>1974.2</ele>
        <time>2019-02-09T14:03:53Z</time>
      </trkpt>
      <trkpt lat="42.72894" lon="1.98382">
        <ele>1972.76</ele>
        <time>2019-02-09T14:04:02Z</time>
      </trkpt>
      <trkpt lat="42.72899" lon="1.98373">
        <ele>1971.8</ele>
        <time>2019-02-09T14:04:11Z</time>
      </trkpt>
      <trkpt lat="42.72906" lon="1.98365">
        <ele>1969.88</ele>
        <time>2019-02-09T14:04:20Z</time>
      </trkpt>
      <trkpt lat="42.72912" lon="1.98356">
        <ele>1968.44</ele>
        <time>2019-02-09T14:04:30Z</time>
      </trkpt>
      <trkpt lat="42.72917" lon="1.98345">
        <ele>1965.55</ele>
        <time>2019-02-09T14:04:40Z</time>
      </trkpt>
      <trkpt lat="42.7292" lon="1.98332">
        <ele>1963.63</ele>
        <time>2019-02-09T14:04:50Z</time>
      </trkpt>
      <trkpt lat="42.72921" lon="1.98321">
        <ele>1962.67</ele>
        <time>2019-02-09T14:05:03Z</time>
      </trkpt>
      <trkpt lat="42.72927" lon="1.98311">
        <ele>1959.78</ele>
        <time>2019-02-09T14:05:15Z</time>
      </trkpt>
      <trkpt lat="42.72927" lon="1.98298">
        <ele>1956.42</ele>
        <time>2019-02-09T14:05:26Z</time>
      </trkpt>
      <trkpt lat="42.72927" lon="1.98286">
        <ele>1954.5</ele>
        <time>2019-02-09T14:05:36Z</time>
      </trkpt>
      <trkpt lat="42.72927" lon="1.98273">
        <ele>1953.54</ele>
        <time>2019-02-09T14:05:45Z</time>
      </trkpt>
      <trkpt lat="42.72928" lon="1.98261">
        <ele>1951.61</ele>
        <time>2019-02-09T14:05:55Z</time>
      </trkpt>
      <trkpt lat="42.72928" lon="1.98249">
        <ele>1949.21</ele>
        <time>2019-02-09T14:06:05Z</time>
      </trkpt>
      <trkpt lat="42.72928" lon="1.98237">
        <ele>1948.25</ele>
        <time>2019-02-09T14:06:55Z</time>
      </trkpt>
      <trkpt lat="42.72926" lon="1.98228">
        <ele>1945.85</ele>
        <time>2019-02-09T14:07:08Z</time>
      </trkpt>
      <trkpt lat="42.72929" lon="1.98216">
        <ele>1942.96</ele>
        <time>2019-02-09T14:07:20Z</time>
      </trkpt>
      <trkpt lat="42.72931" lon="1.98203">
        <ele>1940.08</ele>
        <time>2019-02-09T14:07:32Z</time>
      </trkpt>
      <trkpt lat="42.72936" lon="1.98193">
        <ele>1939.12</ele>
        <time>2019-02-09T14:07:43Z</time>
      </trkpt>
      <trkpt lat="42.72941" lon="1.98183">
        <ele>1935.27</ele>
        <time>2019-02-09T14:07:55Z</time>
      </trkpt>
      <trkpt lat="42.72949" lon="1.98174">
        <ele>1931.43</ele>
        <time>2019-02-09T14:08:08Z</time>
      </trkpt>
      <trkpt lat="42.72953" lon="1.98164">
        <ele>1929.5</ele>
        <time>2019-02-09T14:08:20Z</time>
      </trkpt>
      <trkpt lat="42.72958" lon="1.98154">
        <ele>1926.14</ele>
        <time>2019-02-09T14:08:32Z</time>
      </trkpt>
      <trkpt lat="42.72963" lon="1.98142">
        <ele>1922.77</ele>
        <time>2019-02-09T14:08:43Z</time>
      </trkpt>
      <trkpt lat="42.72969" lon="1.98134">
        <ele>1919.89</ele>
        <time>2019-02-09T14:08:56Z</time>
      </trkpt>
      <trkpt lat="42.72977" lon="1.98134">
        <ele>1917.01</ele>
        <time>2019-02-09T14:09:09Z</time>
      </trkpt>
      <trkpt lat="42.72987" lon="1.98134">
        <ele>1913.64</ele>
        <time>2019-02-09T14:09:21Z</time>
      </trkpt>
      <trkpt lat="42.72993" lon="1.98126">
        <ele>1909.8</ele>
        <time>2019-02-09T14:09:34Z</time>
      </trkpt>
      <trkpt lat="42.72995" lon="1.98114">
        <ele>1905.95</ele>
        <time>2019-02-09T14:09:45Z</time>
      </trkpt>
      <trkpt lat="42.73004" lon="1.98115">
        <ele>1903.07</ele>
        <time>2019-02-09T14:09:57Z</time>
      </trkpt>
      <trkpt lat="42.73013" lon="1.98114">
        <ele>1899.22</ele>
        <time>2019-02-09T14:10:10Z</time>
      </trkpt>
      <trkpt lat="42.73015" lon="1.98103">
        <ele>1894.9</ele>
        <time>2019-02-09T14:10:24Z</time>
      </trkpt>
      <trkpt lat="42.73018" lon="1.98091">
        <ele>1891.05</ele>
        <time>2019-02-09T14:10:38Z</time>
      </trkpt>
      <trkpt lat="42.73024" lon="1.98083">
        <ele>1887.21</ele>
        <time>2019-02-09T14:10:52Z</time>
      </trkpt>
      <trkpt lat="42.73029" lon="1.98073">
        <ele>1884.32</ele>
        <time>2019-02-09T14:11:07Z</time>
      </trkpt>
      <trkpt lat="42.73036" lon="1.98066">
        <ele>1880</ele>
        <time>2019-02-09T14:11:21Z</time>
      </trkpt>
      <trkpt lat="42.73044" lon="1.98059">
        <ele>1874.71</ele>
        <time>2019-02-09T14:11:35Z</time>
      </trkpt>
      <trkpt lat="42.73051" lon="1.98051">
        <ele>1869.42</ele>
        <time>2019-02-09T14:11:49Z</time>
      </trkpt>
      <trkpt lat="42.73057" lon="1.98044">
        <ele>1865.58</ele>
        <time>2019-02-09T14:12:35Z</time>
      </trkpt>
      <trkpt lat="42.73063" lon="1.98033">
        <ele>1861.73</ele>
        <time>2019-02-09T14:12:47Z</time>
      </trkpt>
      <trkpt lat="42.7307" lon="1.98025">
        <ele>1855.96</ele>
        <time>2019-02-09T14:12:56Z</time>
      </trkpt>
      <trkpt lat="42.73077" lon="1.98017">
        <ele>1851.16</ele>
        <time>2019-02-09T14:13:05Z</time>
      </trkpt>
      <trkpt lat="42.73085" lon="1.98009">
        <ele>1846.35</ele>
        <time>2019-02-09T14:13:13Z</time>
      </trkpt>
      <trkpt lat="42.73093" lon="1.98002">
        <ele>1841.06</ele>
        <time>2019-02-09T14:13:20Z</time>
      </trkpt>
      <trkpt lat="42.73103" lon="1.97996">
        <ele>1837.22</ele>
        <time>2019-02-09T14:13:26Z</time>
      </trkpt>
      <trkpt lat="42.73112" lon="1.9799">
        <ele>1833.85</ele>
        <time>2019-02-09T14:13:32Z</time>
      </trkpt>
      <trkpt lat="42.73112" lon="1.97991">
        <ele>1834.81</ele>
        <time>2019-02-09T14:13:48Z</time>
      </trkpt>
      <trkpt lat="42.73112" lon="1.9799">
        <ele>1834.33</ele>
        <time>2019-02-09T14:14:13Z</time>
      </trkpt>
      <trkpt lat="42.73114" lon="1.97985">
        <ele>1834.33</ele>
        <time>2019-02-09T14:14:49Z</time>
      </trkpt>
      <trkpt lat="42.73114" lon="1.97975">
        <ele>1832.89</ele>
        <time>2019-02-09T14:15:04Z</time>
      </trkpt>
      <trkpt lat="42.73116" lon="1.97972">
        <ele>1831.93</ele>
        <time>2019-02-09T14:16:09Z</time>
      </trkpt>
      <trkpt lat="42.73115" lon="1.9796">
        <ele>1830.97</ele>
        <time>2019-02-09T14:16:24Z</time>
      </trkpt>
      <trkpt lat="42.73112" lon="1.97948">
        <ele>1830.01</ele>
        <time>2019-02-09T14:16:36Z</time>
      </trkpt>
      <trkpt lat="42.73107" lon="1.97936">
        <ele>1829.53</ele>
        <time>2019-02-09T14:16:47Z</time>
      </trkpt>
      <trkpt lat="42.73104" lon="1.97924">
        <ele>1828.56</ele>
        <time>2019-02-09T14:16:58Z</time>
      </trkpt>
      <trkpt lat="42.73103" lon="1.97912">
        <ele>1827.12</ele>
        <time>2019-02-09T14:17:11Z</time>
      </trkpt>
      <trkpt lat="42.73101" lon="1.97901">
        <ele>1825.68</ele>
        <time>2019-02-09T14:17:26Z</time>
      </trkpt>
      <trkpt lat="42.73101" lon="1.97889">
        <ele>1824.24</ele>
        <time>2019-02-09T14:17:38Z</time>
      </trkpt>
      <trkpt lat="42.731" lon="1.97876">
        <ele>1823.28</ele>
        <time>2019-02-09T14:17:49Z</time>
      </trkpt>
      <trkpt lat="42.73099" lon="1.97863">
        <ele>1821.84</ele>
        <time>2019-02-09T14:18:00Z</time>
      </trkpt>
      <trkpt lat="42.73096" lon="1.97851">
        <ele>1820.39</ele>
        <time>2019-02-09T14:18:10Z</time>
      </trkpt>
      <trkpt lat="42.73092" lon="1.9784">
        <ele>1818.95</ele>
        <time>2019-02-09T14:18:21Z</time>
      </trkpt>
      <trkpt lat="42.73092" lon="1.97828">
        <ele>1817.51</ele>
        <time>2019-02-09T14:18:32Z</time>
      </trkpt>
      <trkpt lat="42.73091" lon="1.97815">
        <ele>1816.07</ele>
        <time>2019-02-09T14:18:43Z</time>
      </trkpt>
      <trkpt lat="42.73087" lon="1.97805">
        <ele>1815.11</ele>
        <time>2019-02-09T14:18:54Z</time>
      </trkpt>
      <trkpt lat="42.73083" lon="1.97793">
        <ele>1813.66</ele>
        <time>2019-02-09T14:19:04Z</time>
      </trkpt>
      <trkpt lat="42.73079" lon="1.97782">
        <ele>1813.18</ele>
        <time>2019-02-09T14:19:14Z</time>
      </trkpt>
      <trkpt lat="42.73076" lon="1.97769">
        <ele>1813.18</ele>
        <time>2019-02-09T14:19:24Z</time>
      </trkpt>
      <trkpt lat="42.73073" lon="1.97758">
        <ele>1812.7</ele>
        <time>2019-02-09T14:19:34Z</time>
      </trkpt>
      <trkpt lat="42.7307" lon="1.97746">
        <ele>1811.74</ele>
        <time>2019-02-09T14:19:44Z</time>
      </trkpt>
      <trkpt lat="42.73067" lon="1.97734">
        <ele>1811.26</ele>
        <time>2019-02-09T14:19:54Z</time>
      </trkpt>
      <trkpt lat="42.73065" lon="1.97722">
        <ele>1811.26</ele>
        <time>2019-02-09T14:20:03Z</time>
      </trkpt>
      <trkpt lat="42.73062" lon="1.97709">
        <ele>1810.78</ele>
        <time>2019-02-09T14:20:13Z</time>
      </trkpt>
      <trkpt lat="42.7306" lon="1.97697">
        <ele>1810.3</ele>
        <time>2019-02-09T14:20:28Z</time>
      </trkpt>
      <trkpt lat="42.73057" lon="1.97685">
        <ele>1809.82</ele>
        <time>2019-02-09T14:20:38Z</time>
      </trkpt>
      <trkpt lat="42.73057" lon="1.97674">
        <ele>1808.86</ele>
        <time>2019-02-09T14:20:48Z</time>
      </trkpt>
      <trkpt lat="42.73058" lon="1.97662">
        <ele>1808.38</ele>
        <time>2019-02-09T14:20:57Z</time>
      </trkpt>
      <trkpt lat="42.73057" lon="1.97651">
        <ele>1807.9</ele>
        <time>2019-02-09T14:21:07Z</time>
      </trkpt>
      <trkpt lat="42.73053" lon="1.97639">
        <ele>1807.42</ele>
        <time>2019-02-09T14:21:17Z</time>
      </trkpt>
      <trkpt lat="42.7305" lon="1.97626">
        <ele>1805.97</ele>
        <time>2019-02-09T14:21:27Z</time>
      </trkpt>
      <trkpt lat="42.73047" lon="1.97613">
        <ele>1806.45</ele>
        <time>2019-02-09T14:21:36Z</time>
      </trkpt>
      <trkpt lat="42.73042" lon="1.97601">
        <ele>1805.01</ele>
        <time>2019-02-09T14:21:45Z</time>
      </trkpt>
      <trkpt lat="42.73037" lon="1.97587">
        <ele>1804.53</ele>
        <time>2019-02-09T14:21:54Z</time>
      </trkpt>
      <trkpt lat="42.73034" lon="1.97577">
        <ele>1804.05</ele>
        <time>2019-02-09T14:22:03Z</time>
      </trkpt>
      <trkpt lat="42.73033" lon="1.97567">
        <ele>1803.57</ele>
        <time>2019-02-09T14:22:12Z</time>
      </trkpt>
      <trkpt lat="42.7303" lon="1.97555">
        <ele>1803.57</ele>
        <time>2019-02-09T14:22:21Z</time>
      </trkpt>
      <trkpt lat="42.73027" lon="1.97542">
        <ele>1802.13</ele>
        <time>2019-02-09T14:22:42Z</time>
      </trkpt>
      <trkpt lat="42.73027" lon="1.97531">
        <ele>1802.13</ele>
        <time>2019-02-09T14:22:55Z</time>
      </trkpt>
      <trkpt lat="42.73027" lon="1.9752">
        <ele>1801.17</ele>
        <time>2019-02-09T14:23:06Z</time>
      </trkpt>
      <trkpt lat="42.73026" lon="1.97507">
        <ele>1800.69</ele>
        <time>2019-02-09T14:23:15Z</time>
      </trkpt>
      <trkpt lat="42.73024" lon="1.97496">
        <ele>1799.73</ele>
        <time>2019-02-09T14:23:26Z</time>
      </trkpt>
      <trkpt lat="42.73023" lon="1.97483">
        <ele>1799.24</ele>
        <time>2019-02-09T14:23:37Z</time>
      </trkpt>
      <trkpt lat="42.73022" lon="1.97472">
        <ele>1798.76</ele>
        <time>2019-02-09T14:23:50Z</time>
      </trkpt>
      <trkpt lat="42.7302" lon="1.9746">
        <ele>1797.8</ele>
        <time>2019-02-09T14:24:00Z</time>
      </trkpt>
      <trkpt lat="42.73018" lon="1.97447">
        <ele>1796.36</ele>
        <time>2019-02-09T14:24:09Z</time>
      </trkpt>
      <trkpt lat="42.73016" lon="1.97435">
        <ele>1795.4</ele>
        <time>2019-02-09T14:24:18Z</time>
      </trkpt>
      <trkpt lat="42.73014" lon="1.97422">
        <ele>1795.4</ele>
        <time>2019-02-09T14:24:27Z</time>
      </trkpt>
      <trkpt lat="42.73012" lon="1.97409">
        <ele>1794.44</ele>
        <time>2019-02-09T14:24:36Z</time>
      </trkpt>
      <trkpt lat="42.7301" lon="1.97396">
        <ele>1793.48</ele>
        <time>2019-02-09T14:24:45Z</time>
      </trkpt>
      <trkpt lat="42.73008" lon="1.97383">
        <ele>1792.52</ele>
        <time>2019-02-09T14:24:54Z</time>
      </trkpt>
      <trkpt lat="42.73006" lon="1.97371">
        <ele>1791.55</ele>
        <time>2019-02-09T14:25:02Z</time>
      </trkpt>
      <trkpt lat="42.73004" lon="1.9736">
        <ele>1791.07</ele>
        <time>2019-02-09T14:25:10Z</time>
      </trkpt>
      <trkpt lat="42.73" lon="1.97347">
        <ele>1790.59</ele>
        <time>2019-02-09T14:25:18Z</time>
      </trkpt>
      <trkpt lat="42.72996" lon="1.97336">
        <ele>1789.15</ele>
        <time>2019-02-09T14:25:26Z</time>
      </trkpt>
      <trkpt lat="42.72992" lon="1.97324">
        <ele>1788.19</ele>
        <time>2019-02-09T14:25:35Z</time>
      </trkpt>
      <trkpt lat="42.7299" lon="1.97311">
        <ele>1787.23</ele>
        <time>2019-02-09T14:25:43Z</time>
      </trkpt>
      <trkpt lat="42.72987" lon="1.97299">
        <ele>1785.79</ele>
        <time>2019-02-09T14:25:51Z</time>
      </trkpt>
      <trkpt lat="42.72984" lon="1.97287">
        <ele>1783.38</ele>
        <time>2019-02-09T14:25:59Z</time>
      </trkpt>
      <trkpt lat="42.72979" lon="1.97274">
        <ele>1782.9</ele>
        <time>2019-02-09T14:26:07Z</time>
      </trkpt>
      <trkpt lat="42.72975" lon="1.97264">
        <ele>1781.46</ele>
        <time>2019-02-09T14:26:15Z</time>
      </trkpt>
      <trkpt lat="42.72969" lon="1.97253">
        <ele>1779.54</ele>
        <time>2019-02-09T14:26:23Z</time>
      </trkpt>
      <trkpt lat="42.72966" lon="1.97242">
        <ele>1778.1</ele>
        <time>2019-02-09T14:26:30Z</time>
      </trkpt>
      <trkpt lat="42.72963" lon="1.9723">
        <ele>1777.13</ele>
        <time>2019-02-09T14:26:38Z</time>
      </trkpt>
      <trkpt lat="42.72959" lon="1.97217">
        <ele>1775.69</ele>
        <time>2019-02-09T14:26:46Z</time>
      </trkpt>
      <trkpt lat="42.72955" lon="1.97205">
        <ele>1774.73</ele>
        <time>2019-02-09T14:26:54Z</time>
      </trkpt>
      <trkpt lat="42.72954" lon="1.97192">
        <ele>1772.81</ele>
        <time>2019-02-09T14:27:02Z</time>
      </trkpt>
      <trkpt lat="42.72951" lon="1.9718">
        <ele>1771.85</ele>
        <time>2019-02-09T14:27:10Z</time>
      </trkpt>
      <trkpt lat="42.72946" lon="1.97168">
        <ele>1768.96</ele>
        <time>2019-02-09T14:27:19Z</time>
      </trkpt>
      <trkpt lat="42.72941" lon="1.97157">
        <ele>1765.6</ele>
        <time>2019-02-09T14:27:28Z</time>
      </trkpt>
      <trkpt lat="42.72938" lon="1.97146">
        <ele>1764.16</ele>
        <time>2019-02-09T14:27:37Z</time>
      </trkpt>
      <trkpt lat="42.72932" lon="1.97135">
        <ele>1762.23</ele>
        <time>2019-02-09T14:27:46Z</time>
      </trkpt>
      <trkpt lat="42.72927" lon="1.97125">
        <ele>1760.31</ele>
        <time>2019-02-09T14:27:55Z</time>
      </trkpt>
      <trkpt lat="42.72922" lon="1.97112">
        <ele>1758.87</ele>
        <time>2019-02-09T14:28:04Z</time>
      </trkpt>
      <trkpt lat="42.72919" lon="1.97102">
        <ele>1757.43</ele>
        <time>2019-02-09T14:28:12Z</time>
      </trkpt>
      <trkpt lat="42.72914" lon="1.97089">
        <ele>1755.5</ele>
        <time>2019-02-09T14:28:21Z</time>
      </trkpt>
      <trkpt lat="42.72908" lon="1.97079">
        <ele>1754.54</ele>
        <time>2019-02-09T14:28:29Z</time>
      </trkpt>
      <trkpt lat="42.72903" lon="1.97067">
        <ele>1752.62</ele>
        <time>2019-02-09T14:28:38Z</time>
      </trkpt>
      <trkpt lat="42.72899" lon="1.97056">
        <ele>1751.66</ele>
        <time>2019-02-09T14:28:47Z</time>
      </trkpt>
      <trkpt lat="42.72894" lon="1.97045">
        <ele>1749.26</ele>
        <time>2019-02-09T14:28:57Z</time>
      </trkpt>
      <trkpt lat="42.72889" lon="1.97034">
        <ele>1747.81</ele>
        <time>2019-02-09T14:29:06Z</time>
      </trkpt>
      <trkpt lat="42.72884" lon="1.97023">
        <ele>1746.37</ele>
        <time>2019-02-09T14:29:14Z</time>
      </trkpt>
      <trkpt lat="42.72878" lon="1.97011">
        <ele>1744.45</ele>
        <time>2019-02-09T14:29:23Z</time>
      </trkpt>
      <trkpt lat="42.72873" lon="1.97">
        <ele>1743.49</ele>
        <time>2019-02-09T14:29:32Z</time>
      </trkpt>
      <trkpt lat="42.72868" lon="1.96989">
        <ele>1741.57</ele>
        <time>2019-02-09T14:29:40Z</time>
      </trkpt>
      <trkpt lat="42.72864" lon="1.96977">
        <ele>1739.16</ele>
        <time>2019-02-09T14:29:48Z</time>
      </trkpt>
      <trkpt lat="42.72858" lon="1.96967">
        <ele>1738.2</ele>
        <time>2019-02-09T14:29:56Z</time>
      </trkpt>
      <trkpt lat="42.72854" lon="1.96956">
        <ele>1737.24</ele>
        <time>2019-02-09T14:30:04Z</time>
      </trkpt>
      <trkpt lat="42.72849" lon="1.96944">
        <ele>1735.32</ele>
        <time>2019-02-09T14:30:13Z</time>
      </trkpt>
      <trkpt lat="42.72844" lon="1.96933">
        <ele>1733.88</ele>
        <time>2019-02-09T14:30:22Z</time>
      </trkpt>
      <trkpt lat="42.72839" lon="1.96921">
        <ele>1732.43</ele>
        <time>2019-02-09T14:30:31Z</time>
      </trkpt>
      <trkpt lat="42.72835" lon="1.96909">
        <ele>1731.47</ele>
        <time>2019-02-09T14:30:40Z</time>
      </trkpt>
      <trkpt lat="42.7283" lon="1.96899">
        <ele>1730.03</ele>
        <time>2019-02-09T14:30:48Z</time>
      </trkpt>
      <trkpt lat="42.72829" lon="1.9689">
        <ele>1728.59</ele>
        <time>2019-02-09T14:31:41Z</time>
      </trkpt>
      <trkpt lat="42.72825" lon="1.96878">
        <ele>1726.67</ele>
        <time>2019-02-09T14:31:50Z</time>
      </trkpt>
      <trkpt lat="42.72821" lon="1.96866">
        <ele>1725.22</ele>
        <time>2019-02-09T14:31:59Z</time>
      </trkpt>
      <trkpt lat="42.72817" lon="1.96852">
        <ele>1724.26</ele>
        <time>2019-02-09T14:32:08Z</time>
      </trkpt>
      <trkpt lat="42.72815" lon="1.96841">
        <ele>1723.3</ele>
        <time>2019-02-09T14:32:16Z</time>
      </trkpt>
      <trkpt lat="42.72812" lon="1.96828">
        <ele>1721.38</ele>
        <time>2019-02-09T14:32:25Z</time>
      </trkpt>
      <trkpt lat="42.72808" lon="1.96815">
        <ele>1720.9</ele>
        <time>2019-02-09T14:32:34Z</time>
      </trkpt>
      <trkpt lat="42.72805" lon="1.96803">
        <ele>1719.46</ele>
        <time>2019-02-09T14:32:44Z</time>
      </trkpt>
      <trkpt lat="42.72801" lon="1.96791">
        <ele>1718.49</ele>
        <time>2019-02-09T14:32:53Z</time>
      </trkpt>
      <trkpt lat="42.72797" lon="1.96778">
        <ele>1717.53</ele>
        <time>2019-02-09T14:33:02Z</time>
      </trkpt>
      <trkpt lat="42.72794" lon="1.96766">
        <ele>1716.09</ele>
        <time>2019-02-09T14:33:11Z</time>
      </trkpt>
      <trkpt lat="42.7279" lon="1.96755">
        <ele>1715.13</ele>
        <time>2019-02-09T14:33:19Z</time>
      </trkpt>
      <trkpt lat="42.72787" lon="1.96742">
        <ele>1713.21</ele>
        <time>2019-02-09T14:33:28Z</time>
      </trkpt>
      <trkpt lat="42.72785" lon="1.96731">
        <ele>1713.21</ele>
        <time>2019-02-09T14:33:37Z</time>
      </trkpt>
      <trkpt lat="42.72784" lon="1.96719">
        <ele>1712.25</ele>
        <time>2019-02-09T14:33:46Z</time>
      </trkpt>
      <trkpt lat="42.72782" lon="1.96706">
        <ele>1711.28</ele>
        <time>2019-02-09T14:33:56Z</time>
      </trkpt>
      <trkpt lat="42.7278" lon="1.96692">
        <ele>1710.8</ele>
        <time>2019-02-09T14:34:05Z</time>
      </trkpt>
      <trkpt lat="42.72777" lon="1.96682">
        <ele>1709.84</ele>
        <time>2019-02-09T14:34:14Z</time>
      </trkpt>
      <trkpt lat="42.72771" lon="1.9667">
        <ele>1708.4</ele>
        <time>2019-02-09T14:34:24Z</time>
      </trkpt>
      <trkpt lat="42.72768" lon="1.96658">
        <ele>1706.48</ele>
        <time>2019-02-09T14:34:33Z</time>
      </trkpt>
      <trkpt lat="42.72765" lon="1.96645">
        <ele>1705.04</ele>
        <time>2019-02-09T14:34:42Z</time>
      </trkpt>
      <trkpt lat="42.72761" lon="1.96632">
        <ele>1705.04</ele>
        <time>2019-02-09T14:34:51Z</time>
      </trkpt>
      <trkpt lat="42.72759" lon="1.9662">
        <ele>1704.07</ele>
        <time>2019-02-09T14:35:00Z</time>
      </trkpt>
      <trkpt lat="42.72755" lon="1.96608">
        <ele>1703.11</ele>
        <time>2019-02-09T14:35:09Z</time>
      </trkpt>
      <trkpt lat="42.7275" lon="1.96596">
        <ele>1702.63</ele>
        <time>2019-02-09T14:35:18Z</time>
      </trkpt>
      <trkpt lat="42.72745" lon="1.96584">
        <ele>1701.67</ele>
        <time>2019-02-09T14:35:27Z</time>
      </trkpt>
      <trkpt lat="42.72741" lon="1.96571">
        <ele>1702.15</ele>
        <time>2019-02-09T14:35:36Z</time>
      </trkpt>
      <trkpt lat="42.72737" lon="1.96558">
        <ele>1700.71</ele>
        <time>2019-02-09T14:35:45Z</time>
      </trkpt>
      <trkpt lat="42.72735" lon="1.96546">
        <ele>1700.71</ele>
        <time>2019-02-09T14:35:54Z</time>
      </trkpt>
      <trkpt lat="42.72731" lon="1.96534">
        <ele>1700.71</ele>
        <time>2019-02-09T14:36:03Z</time>
      </trkpt>
      <trkpt lat="42.72728" lon="1.96522">
        <ele>1699.75</ele>
        <time>2019-02-09T14:36:13Z</time>
      </trkpt>
      <trkpt lat="42.72725" lon="1.96511">
        <ele>1700.23</ele>
        <time>2019-02-09T14:36:25Z</time>
      </trkpt>
      <trkpt lat="42.7272" lon="1.96507">
        <ele>1698.79</ele>
        <time>2019-02-09T14:36:46Z</time>
      </trkpt>
      <trkpt lat="42.7272" lon="1.96497">
        <ele>1699.27</ele>
        <time>2019-02-09T14:36:59Z</time>
      </trkpt>
      <trkpt lat="42.72723" lon="1.96496">
        <ele>1698.79</ele>
        <time>2019-02-09T14:37:19Z</time>
      </trkpt>
      <trkpt lat="42.72723" lon="1.96502">
        <ele>1698.79</ele>
        <time>2019-02-09T14:37:36Z</time>
      </trkpt>
      <trkpt lat="42.72722" lon="1.96498">
        <ele>1699.27</ele>
        <time>2019-02-09T14:38:14Z</time>
      </trkpt>
    </trkseg>
  </trk>
</gpx>